<?xml version="1.0" encoding="UTF-8" standalone="no" ?>
<gpx xmlns="http://www.topografix.com/GPX/1/1" xmlns:xsi="http://www.w3.org/2001/XMLSchema-instance" xsi:schemaLocation="http://www.topografix.com/GPX/1/1 http://www.topografix.com/GPX/1/1/gpx.xsd" version="1.1" creator="VisuGPX - https://www.visugpx.com">
  <metadata>
    <name>feucherolles boucle</name>
    <desc><![CDATA[randonnée de la boucle de feucherolles du 12 janvier 2012]]></desc>
  </metadata>
  <trk>
    <name><![CDATA[FEUCHEROLLES BOUCLE]]></name>
    <trkseg>
      <trkpt lat="48.85146" lon="1.98674">
        <ele>69.35</ele>
        <time>2012-01-12T13:06:40Z</time>
      </trkpt>
      <trkpt lat="48.85149" lon="1.98677">
        <ele>68.39</ele>
        <time>2012-01-12T13:06:43Z</time>
      </trkpt>
      <trkpt lat="48.85153" lon="1.98691">
        <ele>66.95</ele>
        <time>2012-01-12T13:06:51Z</time>
      </trkpt>
      <trkpt lat="48.85159" lon="1.98706">
        <ele>66.47</ele>
        <time>2012-01-12T13:06:58Z</time>
      </trkpt>
      <trkpt lat="48.85165" lon="1.98729">
        <ele>67.91</ele>
        <time>2012-01-12T13:07:10Z</time>
      </trkpt>
      <trkpt lat="48.85173" lon="1.98746">
        <ele>70.79</ele>
        <time>2012-01-12T13:07:25Z</time>
      </trkpt>
      <trkpt lat="48.85172" lon="1.98752">
        <ele>72.24</ele>
        <time>2012-01-12T13:07:29Z</time>
      </trkpt>
      <trkpt lat="48.85187" lon="1.98754">
        <ele>76.56</ele>
        <time>2012-01-12T13:07:44Z</time>
      </trkpt>
      <trkpt lat="48.85194" lon="1.98751">
        <ele>78</ele>
        <time>2012-01-12T13:07:57Z</time>
      </trkpt>
      <trkpt lat="48.85202" lon="1.98747">
        <ele>78.97</ele>
        <time>2012-01-12T13:08:15Z</time>
      </trkpt>
      <trkpt lat="48.85208" lon="1.98746">
        <ele>78.48</ele>
        <time>2012-01-12T13:08:21Z</time>
      </trkpt>
      <trkpt lat="48.85209" lon="1.98753">
        <ele>78.48</ele>
        <time>2012-01-12T13:08:30Z</time>
      </trkpt>
      <trkpt lat="48.85221" lon="1.98737">
        <ele>75.6</ele>
        <time>2012-01-12T13:08:44Z</time>
      </trkpt>
      <trkpt lat="48.85248" lon="1.98728">
        <ele>73.68</ele>
        <time>2012-01-12T13:09:02Z</time>
      </trkpt>
      <trkpt lat="48.85268" lon="1.98719">
        <ele>75.12</ele>
        <time>2012-01-12T13:09:18Z</time>
      </trkpt>
      <trkpt lat="48.85278" lon="1.98715">
        <ele>75.12</ele>
        <time>2012-01-12T13:09:26Z</time>
      </trkpt>
      <trkpt lat="48.85284" lon="1.98722">
        <ele>75.12</ele>
        <time>2012-01-12T13:09:32Z</time>
      </trkpt>
      <trkpt lat="48.8528" lon="1.98754">
        <ele>86.66</ele>
        <time>2012-01-12T13:09:48Z</time>
      </trkpt>
      <trkpt lat="48.85274" lon="1.98775">
        <ele>94.35</ele>
        <time>2012-01-12T13:10:01Z</time>
      </trkpt>
      <trkpt lat="48.85271" lon="1.98806">
        <ele>99.15</ele>
        <time>2012-01-12T13:10:17Z</time>
      </trkpt>
      <trkpt lat="48.8527" lon="1.98811">
        <ele>99.63</ele>
        <time>2012-01-12T13:10:20Z</time>
      </trkpt>
      <trkpt lat="48.85269" lon="1.98825">
        <ele>102.52</ele>
        <time>2012-01-12T13:10:31Z</time>
      </trkpt>
      <trkpt lat="48.85272" lon="1.98846">
        <ele>101.08</ele>
        <time>2012-01-12T13:10:41Z</time>
      </trkpt>
      <trkpt lat="48.85272" lon="1.98854">
        <ele>100.6</ele>
        <time>2012-01-12T13:10:45Z</time>
      </trkpt>
      <trkpt lat="48.85279" lon="1.98878">
        <ele>99.15</ele>
        <time>2012-01-12T13:11:00Z</time>
      </trkpt>
      <trkpt lat="48.85286" lon="1.98898">
        <ele>99.15</ele>
        <time>2012-01-12T13:11:13Z</time>
      </trkpt>
      <trkpt lat="48.85288" lon="1.9891">
        <ele>98.67</ele>
        <time>2012-01-12T13:11:19Z</time>
      </trkpt>
      <trkpt lat="48.85292" lon="1.98933">
        <ele>98.19</ele>
        <time>2012-01-12T13:11:34Z</time>
      </trkpt>
      <trkpt lat="48.85292" lon="1.98933">
        <ele>98.19</ele>
        <time>2012-01-12T13:11:35Z</time>
      </trkpt>
      <trkpt lat="48.85293" lon="1.98941">
        <ele>97.23</ele>
        <time>2012-01-12T13:11:39Z</time>
      </trkpt>
      <trkpt lat="48.85296" lon="1.98974">
        <ele>97.71</ele>
        <time>2012-01-12T13:11:55Z</time>
      </trkpt>
      <trkpt lat="48.85296" lon="1.99">
        <ele>98.67</ele>
        <time>2012-01-12T13:12:09Z</time>
      </trkpt>
      <trkpt lat="48.85296" lon="1.99002">
        <ele>99.15</ele>
        <time>2012-01-12T13:12:15Z</time>
      </trkpt>
      <trkpt lat="48.85299" lon="1.99007">
        <ele>99.15</ele>
        <time>2012-01-12T13:12:18Z</time>
      </trkpt>
      <trkpt lat="48.85303" lon="1.9903">
        <ele>100.6</ele>
        <time>2012-01-12T13:12:29Z</time>
      </trkpt>
      <trkpt lat="48.85303" lon="1.99034">
        <ele>100.6</ele>
        <time>2012-01-12T13:12:31Z</time>
      </trkpt>
      <trkpt lat="48.85307" lon="1.99062">
        <ele>101.08</ele>
        <time>2012-01-12T13:12:45Z</time>
      </trkpt>
      <trkpt lat="48.85309" lon="1.99072">
        <ele>100.6</ele>
        <time>2012-01-12T13:12:50Z</time>
      </trkpt>
      <trkpt lat="48.85312" lon="1.99107">
        <ele>99.63</ele>
        <time>2012-01-12T13:13:07Z</time>
      </trkpt>
      <trkpt lat="48.85314" lon="1.99127">
        <ele>97.23</ele>
        <time>2012-01-12T13:13:17Z</time>
      </trkpt>
      <trkpt lat="48.85316" lon="1.9915">
        <ele>97.71</ele>
        <time>2012-01-12T13:13:28Z</time>
      </trkpt>
      <trkpt lat="48.85317" lon="1.99158">
        <ele>97.23</ele>
        <time>2012-01-12T13:13:33Z</time>
      </trkpt>
      <trkpt lat="48.85319" lon="1.99184">
        <ele>96.75</ele>
        <time>2012-01-12T13:13:46Z</time>
      </trkpt>
      <trkpt lat="48.85321" lon="1.99188">
        <ele>96.27</ele>
        <time>2012-01-12T13:13:49Z</time>
      </trkpt>
      <trkpt lat="48.85333" lon="1.99215">
        <ele>99.15</ele>
        <time>2012-01-12T13:14:04Z</time>
      </trkpt>
      <trkpt lat="48.85348" lon="1.99244">
        <ele>101.56</ele>
        <time>2012-01-12T13:14:21Z</time>
      </trkpt>
      <trkpt lat="48.85352" lon="1.99247">
        <ele>102.04</ele>
        <time>2012-01-12T13:14:24Z</time>
      </trkpt>
      <trkpt lat="48.85367" lon="1.99263">
        <ele>101.56</ele>
        <time>2012-01-12T13:14:38Z</time>
      </trkpt>
      <trkpt lat="48.85381" lon="1.99278">
        <ele>103.48</ele>
        <time>2012-01-12T13:14:51Z</time>
      </trkpt>
      <trkpt lat="48.85389" lon="1.99289">
        <ele>104.44</ele>
        <time>2012-01-12T13:14:58Z</time>
      </trkpt>
      <trkpt lat="48.85395" lon="1.99299">
        <ele>105.4</ele>
        <time>2012-01-12T13:15:04Z</time>
      </trkpt>
      <trkpt lat="48.85414" lon="1.99324">
        <ele>110.21</ele>
        <time>2012-01-12T13:15:21Z</time>
      </trkpt>
      <trkpt lat="48.85426" lon="1.99334">
        <ele>109.73</ele>
        <time>2012-01-12T13:15:30Z</time>
      </trkpt>
      <trkpt lat="48.85435" lon="1.99344">
        <ele>109.73</ele>
        <time>2012-01-12T13:15:38Z</time>
      </trkpt>
      <trkpt lat="48.85451" lon="1.99367">
        <ele>113.09</ele>
        <time>2012-01-12T13:15:55Z</time>
      </trkpt>
      <trkpt lat="48.8547" lon="1.99391">
        <ele>110.69</ele>
        <time>2012-01-12T13:16:12Z</time>
      </trkpt>
      <trkpt lat="48.85486" lon="1.99417">
        <ele>110.69</ele>
        <time>2012-01-12T13:16:29Z</time>
      </trkpt>
      <trkpt lat="48.85507" lon="1.99439">
        <ele>111.17</ele>
        <time>2012-01-12T13:16:47Z</time>
      </trkpt>
      <trkpt lat="48.85524" lon="1.99464">
        <ele>111.17</ele>
        <time>2012-01-12T13:17:04Z</time>
      </trkpt>
      <trkpt lat="48.85541" lon="1.99492">
        <ele>112.13</ele>
        <time>2012-01-12T13:17:22Z</time>
      </trkpt>
      <trkpt lat="48.85558" lon="1.99518">
        <ele>114.53</ele>
        <time>2012-01-12T13:17:39Z</time>
      </trkpt>
      <trkpt lat="48.85578" lon="1.99534">
        <ele>113.57</ele>
        <time>2012-01-12T13:17:54Z</time>
      </trkpt>
      <trkpt lat="48.85582" lon="1.99546">
        <ele>113.57</ele>
        <time>2012-01-12T13:18:04Z</time>
      </trkpt>
      <trkpt lat="48.85598" lon="1.9957">
        <ele>117.42</ele>
        <time>2012-01-12T13:18:20Z</time>
      </trkpt>
      <trkpt lat="48.85614" lon="1.99594">
        <ele>118.38</ele>
        <time>2012-01-12T13:18:37Z</time>
      </trkpt>
      <trkpt lat="48.85624" lon="1.99605">
        <ele>117.9</ele>
        <time>2012-01-12T13:18:50Z</time>
      </trkpt>
      <trkpt lat="48.85625" lon="1.99608">
        <ele>117.42</ele>
        <time>2012-01-12T13:18:53Z</time>
      </trkpt>
      <trkpt lat="48.85631" lon="1.9962">
        <ele>115.98</ele>
        <time>2012-01-12T13:18:59Z</time>
      </trkpt>
      <trkpt lat="48.85648" lon="1.9964">
        <ele>113.57</ele>
        <time>2012-01-12T13:19:14Z</time>
      </trkpt>
      <trkpt lat="48.85668" lon="1.99668">
        <ele>113.09</ele>
        <time>2012-01-12T13:19:33Z</time>
      </trkpt>
      <trkpt lat="48.85686" lon="1.99694">
        <ele>113.57</ele>
        <time>2012-01-12T13:19:51Z</time>
      </trkpt>
      <trkpt lat="48.85706" lon="1.9971">
        <ele>115.01</ele>
        <time>2012-01-12T13:20:07Z</time>
      </trkpt>
      <trkpt lat="48.85723" lon="1.99727">
        <ele>115.01</ele>
        <time>2012-01-12T13:20:21Z</time>
      </trkpt>
      <trkpt lat="48.85734" lon="1.99738">
        <ele>115.01</ele>
        <time>2012-01-12T13:20:33Z</time>
      </trkpt>
      <trkpt lat="48.85752" lon="1.99759">
        <ele>115.01</ele>
        <time>2012-01-12T13:20:50Z</time>
      </trkpt>
      <trkpt lat="48.85761" lon="1.99774">
        <ele>115.98</ele>
        <time>2012-01-12T13:21:03Z</time>
      </trkpt>
      <trkpt lat="48.8578" lon="1.99793">
        <ele>116.46</ele>
        <time>2012-01-12T13:21:20Z</time>
      </trkpt>
      <trkpt lat="48.85795" lon="1.9981">
        <ele>117.9</ele>
        <time>2012-01-12T13:21:34Z</time>
      </trkpt>
      <trkpt lat="48.85812" lon="1.99829">
        <ele>117.9</ele>
        <time>2012-01-12T13:21:49Z</time>
      </trkpt>
      <trkpt lat="48.85828" lon="1.99852">
        <ele>117.42</ele>
        <time>2012-01-12T13:22:05Z</time>
      </trkpt>
      <trkpt lat="48.85843" lon="1.99866">
        <ele>116.46</ele>
        <time>2012-01-12T13:22:17Z</time>
      </trkpt>
      <trkpt lat="48.8586" lon="1.99888">
        <ele>116.94</ele>
        <time>2012-01-12T13:22:33Z</time>
      </trkpt>
      <trkpt lat="48.85877" lon="1.9991">
        <ele>116.94</ele>
        <time>2012-01-12T13:22:49Z</time>
      </trkpt>
      <trkpt lat="48.85896" lon="1.99935">
        <ele>117.42</ele>
        <time>2012-01-12T13:23:08Z</time>
      </trkpt>
      <trkpt lat="48.85907" lon="1.99948">
        <ele>117.42</ele>
        <time>2012-01-12T13:23:21Z</time>
      </trkpt>
      <trkpt lat="48.85911" lon="1.99953">
        <ele>117.42</ele>
        <time>2012-01-12T13:23:36Z</time>
      </trkpt>
      <trkpt lat="48.85916" lon="1.99957">
        <ele>117.42</ele>
        <time>2012-01-12T13:23:40Z</time>
      </trkpt>
      <trkpt lat="48.85932" lon="1.99976">
        <ele>118.86</ele>
        <time>2012-01-12T13:23:55Z</time>
      </trkpt>
      <trkpt lat="48.85949" lon="1.99994">
        <ele>121.26</ele>
        <time>2012-01-12T13:24:10Z</time>
      </trkpt>
      <trkpt lat="48.85952" lon="1.99998">
        <ele>121.74</ele>
        <time>2012-01-12T13:24:13Z</time>
      </trkpt>
      <trkpt lat="48.85958" lon="2.00003">
        <ele>122.22</ele>
        <time>2012-01-12T13:24:18Z</time>
      </trkpt>
      <trkpt lat="48.85979" lon="2.00026">
        <ele>123.19</ele>
        <time>2012-01-12T13:24:37Z</time>
      </trkpt>
      <trkpt lat="48.8598" lon="2.00028">
        <ele>123.19</ele>
        <time>2012-01-12T13:24:38Z</time>
      </trkpt>
      <trkpt lat="48.85986" lon="2.00033">
        <ele>123.19</ele>
        <time>2012-01-12T13:24:43Z</time>
      </trkpt>
      <trkpt lat="48.86003" lon="2.00049">
        <ele>122.71</ele>
        <time>2012-01-12T13:24:58Z</time>
      </trkpt>
      <trkpt lat="48.86022" lon="2.00066">
        <ele>122.22</ele>
        <time>2012-01-12T13:25:15Z</time>
      </trkpt>
      <trkpt lat="48.8604" lon="2.00083">
        <ele>122.22</ele>
        <time>2012-01-12T13:25:31Z</time>
      </trkpt>
      <trkpt lat="48.86055" lon="2.00093">
        <ele>121.74</ele>
        <time>2012-01-12T13:25:43Z</time>
      </trkpt>
      <trkpt lat="48.8606" lon="2.00094">
        <ele>122.22</ele>
        <time>2012-01-12T13:25:49Z</time>
      </trkpt>
      <trkpt lat="48.86077" lon="2.00107">
        <ele>122.22</ele>
        <time>2012-01-12T13:26:04Z</time>
      </trkpt>
      <trkpt lat="48.86095" lon="2.00119">
        <ele>124.63</ele>
        <time>2012-01-12T13:26:19Z</time>
      </trkpt>
      <trkpt lat="48.86112" lon="2.0013">
        <ele>126.07</ele>
        <time>2012-01-12T13:26:34Z</time>
      </trkpt>
      <trkpt lat="48.86132" lon="2.00142">
        <ele>127.03</ele>
        <time>2012-01-12T13:26:50Z</time>
      </trkpt>
      <trkpt lat="48.86153" lon="2.00155">
        <ele>127.99</ele>
        <time>2012-01-12T13:27:07Z</time>
      </trkpt>
      <trkpt lat="48.86167" lon="2.00164">
        <ele>127.99</ele>
        <time>2012-01-12T13:27:18Z</time>
      </trkpt>
      <trkpt lat="48.86188" lon="2.00178">
        <ele>127.51</ele>
        <time>2012-01-12T13:27:35Z</time>
      </trkpt>
      <trkpt lat="48.86212" lon="2.00192">
        <ele>127.03</ele>
        <time>2012-01-12T13:27:54Z</time>
      </trkpt>
      <trkpt lat="48.86227" lon="2.00202">
        <ele>126.55</ele>
        <time>2012-01-12T13:28:06Z</time>
      </trkpt>
      <trkpt lat="48.86242" lon="2.00215">
        <ele>126.55</ele>
        <time>2012-01-12T13:28:20Z</time>
      </trkpt>
      <trkpt lat="48.86265" lon="2.00228">
        <ele>127.03</ele>
        <time>2012-01-12T13:28:38Z</time>
      </trkpt>
      <trkpt lat="48.86269" lon="2.00231">
        <ele>127.03</ele>
        <time>2012-01-12T13:28:41Z</time>
      </trkpt>
      <trkpt lat="48.86287" lon="2.00239">
        <ele>127.51</ele>
        <time>2012-01-12T13:28:56Z</time>
      </trkpt>
      <trkpt lat="48.86296" lon="2.00245">
        <ele>127.03</ele>
        <time>2012-01-12T13:29:11Z</time>
      </trkpt>
      <trkpt lat="48.86299" lon="2.00248">
        <ele>127.03</ele>
        <time>2012-01-12T13:29:26Z</time>
      </trkpt>
      <trkpt lat="48.86299" lon="2.00248">
        <ele>127.03</ele>
        <time>2012-01-12T13:29:55Z</time>
      </trkpt>
      <trkpt lat="48.86299" lon="2.00248">
        <ele>127.03</ele>
        <time>2012-01-12T13:30:21Z</time>
      </trkpt>
      <trkpt lat="48.86299" lon="2.00248">
        <ele>127.03</ele>
        <time>2012-01-12T13:30:51Z</time>
      </trkpt>
      <trkpt lat="48.86299" lon="2.00248">
        <ele>127.03</ele>
        <time>2012-01-12T13:31:25Z</time>
      </trkpt>
      <trkpt lat="48.86301" lon="2.0025">
        <ele>127.51</ele>
        <time>2012-01-12T13:31:47Z</time>
      </trkpt>
      <trkpt lat="48.86318" lon="2.00262">
        <ele>127.03</ele>
        <time>2012-01-12T13:32:01Z</time>
      </trkpt>
      <trkpt lat="48.86335" lon="2.00279">
        <ele>127.51</ele>
        <time>2012-01-12T13:32:16Z</time>
      </trkpt>
      <trkpt lat="48.86343" lon="2.00286">
        <ele>127.99</ele>
        <time>2012-01-12T13:32:24Z</time>
      </trkpt>
      <trkpt lat="48.86346" lon="2.0029">
        <ele>128.47</ele>
        <time>2012-01-12T13:32:32Z</time>
      </trkpt>
      <trkpt lat="48.86364" lon="2.00306">
        <ele>128.47</ele>
        <time>2012-01-12T13:32:48Z</time>
      </trkpt>
      <trkpt lat="48.86382" lon="2.00323">
        <ele>127.51</ele>
        <time>2012-01-12T13:33:03Z</time>
      </trkpt>
      <trkpt lat="48.86384" lon="2.00325">
        <ele>127.51</ele>
        <time>2012-01-12T13:33:19Z</time>
      </trkpt>
      <trkpt lat="48.86396" lon="2.00337">
        <ele>127.51</ele>
        <time>2012-01-12T13:33:37Z</time>
      </trkpt>
      <trkpt lat="48.86416" lon="2.00353">
        <ele>128.47</ele>
        <time>2012-01-12T13:33:54Z</time>
      </trkpt>
      <trkpt lat="48.86435" lon="2.0037">
        <ele>128.47</ele>
        <time>2012-01-12T13:34:09Z</time>
      </trkpt>
      <trkpt lat="48.86453" lon="2.00386">
        <ele>128.47</ele>
        <time>2012-01-12T13:34:26Z</time>
      </trkpt>
      <trkpt lat="48.86455" lon="2.00389">
        <ele>128.47</ele>
        <time>2012-01-12T13:34:29Z</time>
      </trkpt>
      <trkpt lat="48.86459" lon="2.00394">
        <ele>128.95</ele>
        <time>2012-01-12T13:34:33Z</time>
      </trkpt>
      <trkpt lat="48.86468" lon="2.004">
        <ele>128.95</ele>
        <time>2012-01-12T13:34:41Z</time>
      </trkpt>
      <trkpt lat="48.86485" lon="2.00412">
        <ele>128.95</ele>
        <time>2012-01-12T13:34:55Z</time>
      </trkpt>
      <trkpt lat="48.86504" lon="2.00424">
        <ele>127.99</ele>
        <time>2012-01-12T13:35:11Z</time>
      </trkpt>
      <trkpt lat="48.86523" lon="2.00437">
        <ele>127.99</ele>
        <time>2012-01-12T13:35:29Z</time>
      </trkpt>
      <trkpt lat="48.86539" lon="2.00446">
        <ele>129.43</ele>
        <time>2012-01-12T13:35:43Z</time>
      </trkpt>
      <trkpt lat="48.86553" lon="2.00456">
        <ele>130.4</ele>
        <time>2012-01-12T13:35:55Z</time>
      </trkpt>
      <trkpt lat="48.86564" lon="2.00463">
        <ele>130.88</ele>
        <time>2012-01-12T13:36:07Z</time>
      </trkpt>
      <trkpt lat="48.86564" lon="2.00463">
        <ele>130.88</ele>
        <time>2012-01-12T13:36:40Z</time>
      </trkpt>
      <trkpt lat="48.86576" lon="2.00468">
        <ele>129.92</ele>
        <time>2012-01-12T13:36:51Z</time>
      </trkpt>
      <trkpt lat="48.86597" lon="2.00481">
        <ele>129.92</ele>
        <time>2012-01-12T13:37:08Z</time>
      </trkpt>
      <trkpt lat="48.86619" lon="2.00492">
        <ele>130.88</ele>
        <time>2012-01-12T13:37:25Z</time>
      </trkpt>
      <trkpt lat="48.86645" lon="2.00504">
        <ele>130.88</ele>
        <time>2012-01-12T13:37:44Z</time>
      </trkpt>
      <trkpt lat="48.86665" lon="2.00514">
        <ele>130.4</ele>
        <time>2012-01-12T13:38:00Z</time>
      </trkpt>
      <trkpt lat="48.86688" lon="2.00527">
        <ele>129.43</ele>
        <time>2012-01-12T13:38:18Z</time>
      </trkpt>
      <trkpt lat="48.86708" lon="2.00537">
        <ele>129.92</ele>
        <time>2012-01-12T13:38:34Z</time>
      </trkpt>
      <trkpt lat="48.86709" lon="2.00538">
        <ele>129.92</ele>
        <time>2012-01-12T13:38:35Z</time>
      </trkpt>
      <trkpt lat="48.86715" lon="2.00542">
        <ele>129.43</ele>
        <time>2012-01-12T13:38:40Z</time>
      </trkpt>
      <trkpt lat="48.86735" lon="2.00558">
        <ele>130.88</ele>
        <time>2012-01-12T13:38:57Z</time>
      </trkpt>
      <trkpt lat="48.86753" lon="2.00574">
        <ele>129.92</ele>
        <time>2012-01-12T13:39:13Z</time>
      </trkpt>
      <trkpt lat="48.8677" lon="2.0059">
        <ele>129.43</ele>
        <time>2012-01-12T13:39:28Z</time>
      </trkpt>
      <trkpt lat="48.86788" lon="2.00603">
        <ele>128.95</ele>
        <time>2012-01-12T13:39:43Z</time>
      </trkpt>
      <trkpt lat="48.86803" lon="2.00615">
        <ele>128.95</ele>
        <time>2012-01-12T13:39:56Z</time>
      </trkpt>
      <trkpt lat="48.86804" lon="2.00615">
        <ele>128.95</ele>
        <time>2012-01-12T13:39:57Z</time>
      </trkpt>
      <trkpt lat="48.86825" lon="2.00632">
        <ele>129.43</ele>
        <time>2012-01-12T13:40:14Z</time>
      </trkpt>
      <trkpt lat="48.86843" lon="2.00647">
        <ele>130.88</ele>
        <time>2012-01-12T13:40:29Z</time>
      </trkpt>
      <trkpt lat="48.86858" lon="2.00659">
        <ele>131.36</ele>
        <time>2012-01-12T13:40:42Z</time>
      </trkpt>
      <trkpt lat="48.86875" lon="2.00672">
        <ele>133.28</ele>
        <time>2012-01-12T13:40:57Z</time>
      </trkpt>
      <trkpt lat="48.86894" lon="2.00688">
        <ele>134.24</ele>
        <time>2012-01-12T13:41:13Z</time>
      </trkpt>
      <trkpt lat="48.86911" lon="2.00706">
        <ele>133.76</ele>
        <time>2012-01-12T13:41:28Z</time>
      </trkpt>
      <trkpt lat="48.86927" lon="2.00725">
        <ele>132.8</ele>
        <time>2012-01-12T13:41:44Z</time>
      </trkpt>
      <trkpt lat="48.86931" lon="2.00729">
        <ele>133.28</ele>
        <time>2012-01-12T13:41:47Z</time>
      </trkpt>
      <trkpt lat="48.86935" lon="2.00733">
        <ele>133.76</ele>
        <time>2012-01-12T13:41:51Z</time>
      </trkpt>
      <trkpt lat="48.86952" lon="2.00754">
        <ele>136.16</ele>
        <time>2012-01-12T13:42:06Z</time>
      </trkpt>
      <trkpt lat="48.86968" lon="2.00774">
        <ele>137.13</ele>
        <time>2012-01-12T13:42:22Z</time>
      </trkpt>
      <trkpt lat="48.86971" lon="2.00776">
        <ele>136.64</ele>
        <time>2012-01-12T13:42:24Z</time>
      </trkpt>
      <trkpt lat="48.86975" lon="2.00784">
        <ele>137.13</ele>
        <time>2012-01-12T13:42:32Z</time>
      </trkpt>
      <trkpt lat="48.86997" lon="2.008">
        <ele>138.09</ele>
        <time>2012-01-12T13:42:49Z</time>
      </trkpt>
      <trkpt lat="48.87" lon="2.008">
        <ele>138.57</ele>
        <time>2012-01-12T13:42:52Z</time>
      </trkpt>
      <trkpt lat="48.87004" lon="2.00793">
        <ele>137.61</ele>
        <time>2012-01-12T13:43:02Z</time>
      </trkpt>
      <trkpt lat="48.87004" lon="2.00801">
        <ele>137.13</ele>
        <time>2012-01-12T13:43:06Z</time>
      </trkpt>
      <trkpt lat="48.87009" lon="2.0081">
        <ele>137.13</ele>
        <time>2012-01-12T13:43:12Z</time>
      </trkpt>
      <trkpt lat="48.87017" lon="2.00815">
        <ele>136.16</ele>
        <time>2012-01-12T13:43:19Z</time>
      </trkpt>
      <trkpt lat="48.87032" lon="2.00825">
        <ele>135.68</ele>
        <time>2012-01-12T13:43:34Z</time>
      </trkpt>
      <trkpt lat="48.87035" lon="2.00828">
        <ele>136.16</ele>
        <time>2012-01-12T13:43:45Z</time>
      </trkpt>
      <trkpt lat="48.87034" lon="2.00827">
        <ele>136.16</ele>
        <time>2012-01-12T13:43:52Z</time>
      </trkpt>
      <trkpt lat="48.87057" lon="2.00838">
        <ele>140.97</ele>
        <time>2012-01-12T13:44:11Z</time>
      </trkpt>
      <trkpt lat="48.87077" lon="2.00851">
        <ele>143.85</ele>
        <time>2012-01-12T13:44:30Z</time>
      </trkpt>
      <trkpt lat="48.87093" lon="2.00865">
        <ele>145.3</ele>
        <time>2012-01-12T13:44:45Z</time>
      </trkpt>
      <trkpt lat="48.87113" lon="2.00886">
        <ele>141.93</ele>
        <time>2012-01-12T13:45:00Z</time>
      </trkpt>
      <trkpt lat="48.87131" lon="2.00893">
        <ele>142.41</ele>
        <time>2012-01-12T13:45:15Z</time>
      </trkpt>
      <trkpt lat="48.87151" lon="2.00896">
        <ele>145.78</ele>
        <time>2012-01-12T13:45:33Z</time>
      </trkpt>
      <trkpt lat="48.87175" lon="2.009">
        <ele>147.7</ele>
        <time>2012-01-12T13:45:52Z</time>
      </trkpt>
      <trkpt lat="48.87184" lon="2.00904">
        <ele>148.18</ele>
        <time>2012-01-12T13:46:01Z</time>
      </trkpt>
      <trkpt lat="48.87189" lon="2.00909">
        <ele>148.18</ele>
        <time>2012-01-12T13:46:05Z</time>
      </trkpt>
      <trkpt lat="48.87203" lon="2.00928">
        <ele>149.14</ele>
        <time>2012-01-12T13:46:20Z</time>
      </trkpt>
      <trkpt lat="48.87206" lon="2.00933">
        <ele>149.14</ele>
        <time>2012-01-12T13:46:23Z</time>
      </trkpt>
      <trkpt lat="48.87222" lon="2.0095">
        <ele>149.14</ele>
        <time>2012-01-12T13:46:40Z</time>
      </trkpt>
      <trkpt lat="48.87233" lon="2.00953">
        <ele>149.14</ele>
        <time>2012-01-12T13:46:54Z</time>
      </trkpt>
      <trkpt lat="48.87234" lon="2.00953">
        <ele>149.14</ele>
        <time>2012-01-12T13:47:18Z</time>
      </trkpt>
      <trkpt lat="48.87236" lon="2.00953">
        <ele>149.14</ele>
        <time>2012-01-12T13:47:36Z</time>
      </trkpt>
      <trkpt lat="48.87239" lon="2.00951">
        <ele>150.1</ele>
        <time>2012-01-12T13:47:39Z</time>
      </trkpt>
      <trkpt lat="48.8726" lon="2.00961">
        <ele>154.43</ele>
        <time>2012-01-12T13:47:56Z</time>
      </trkpt>
      <trkpt lat="48.87269" lon="2.00979">
        <ele>155.39</ele>
        <time>2012-01-12T13:48:11Z</time>
      </trkpt>
      <trkpt lat="48.87273" lon="2.00994">
        <ele>152.99</ele>
        <time>2012-01-12T13:48:26Z</time>
      </trkpt>
      <trkpt lat="48.87277" lon="2.01002">
        <ele>152.51</ele>
        <time>2012-01-12T13:48:52Z</time>
      </trkpt>
      <trkpt lat="48.87289" lon="2.01017">
        <ele>154.43</ele>
        <time>2012-01-12T13:49:03Z</time>
      </trkpt>
      <trkpt lat="48.87295" lon="2.01024">
        <ele>155.39</ele>
        <time>2012-01-12T13:49:10Z</time>
      </trkpt>
      <trkpt lat="48.87309" lon="2.01043">
        <ele>158.75</ele>
        <time>2012-01-12T13:49:26Z</time>
      </trkpt>
      <trkpt lat="48.87319" lon="2.01056">
        <ele>162.6</ele>
        <time>2012-01-12T13:49:40Z</time>
      </trkpt>
      <trkpt lat="48.87324" lon="2.01062">
        <ele>164.04</ele>
        <time>2012-01-12T13:49:55Z</time>
      </trkpt>
      <trkpt lat="48.8733" lon="2.01074">
        <ele>163.08</ele>
        <time>2012-01-12T13:50:19Z</time>
      </trkpt>
      <trkpt lat="48.87337" lon="2.01097">
        <ele>162.12</ele>
        <time>2012-01-12T13:50:32Z</time>
      </trkpt>
      <trkpt lat="48.87341" lon="2.01112">
        <ele>162.6</ele>
        <time>2012-01-12T13:50:46Z</time>
      </trkpt>
      <trkpt lat="48.87346" lon="2.01129">
        <ele>164.04</ele>
        <time>2012-01-12T13:51:01Z</time>
      </trkpt>
      <trkpt lat="48.87352" lon="2.01147">
        <ele>166.45</ele>
        <time>2012-01-12T13:51:17Z</time>
      </trkpt>
      <trkpt lat="48.87359" lon="2.01161">
        <ele>168.85</ele>
        <time>2012-01-12T13:51:31Z</time>
      </trkpt>
      <trkpt lat="48.87366" lon="2.01162">
        <ele>168.85</ele>
        <time>2012-01-12T13:51:48Z</time>
      </trkpt>
      <trkpt lat="48.87374" lon="2.0116">
        <ele>168.85</ele>
        <time>2012-01-12T13:52:07Z</time>
      </trkpt>
      <trkpt lat="48.87391" lon="2.01159">
        <ele>169.33</ele>
        <time>2012-01-12T13:52:23Z</time>
      </trkpt>
      <trkpt lat="48.87407" lon="2.01158">
        <ele>171.25</ele>
        <time>2012-01-12T13:52:43Z</time>
      </trkpt>
      <trkpt lat="48.8742" lon="2.01156">
        <ele>173.17</ele>
        <time>2012-01-12T13:53:00Z</time>
      </trkpt>
      <trkpt lat="48.87428" lon="2.01158">
        <ele>172.69</ele>
        <time>2012-01-12T13:53:07Z</time>
      </trkpt>
      <trkpt lat="48.87441" lon="2.01153">
        <ele>173.17</ele>
        <time>2012-01-12T13:53:21Z</time>
      </trkpt>
      <trkpt lat="48.87445" lon="2.01152">
        <ele>173.66</ele>
        <time>2012-01-12T13:53:40Z</time>
      </trkpt>
      <trkpt lat="48.87448" lon="2.01155">
        <ele>173.66</ele>
        <time>2012-01-12T13:54:07Z</time>
      </trkpt>
      <trkpt lat="48.8745" lon="2.01156">
        <ele>174.14</ele>
        <time>2012-01-12T13:54:09Z</time>
      </trkpt>
      <trkpt lat="48.87465" lon="2.01159">
        <ele>174.14</ele>
        <time>2012-01-12T13:54:21Z</time>
      </trkpt>
      <trkpt lat="48.87483" lon="2.01162">
        <ele>174.62</ele>
        <time>2012-01-12T13:54:37Z</time>
      </trkpt>
      <trkpt lat="48.87506" lon="2.01169">
        <ele>173.66</ele>
        <time>2012-01-12T13:54:54Z</time>
      </trkpt>
      <trkpt lat="48.8752" lon="2.01173">
        <ele>174.62</ele>
        <time>2012-01-12T13:55:07Z</time>
      </trkpt>
      <trkpt lat="48.87534" lon="2.01175">
        <ele>174.62</ele>
        <time>2012-01-12T13:55:21Z</time>
      </trkpt>
      <trkpt lat="48.87535" lon="2.01175">
        <ele>174.62</ele>
        <time>2012-01-12T13:55:22Z</time>
      </trkpt>
      <trkpt lat="48.87561" lon="2.01184">
        <ele>174.14</ele>
        <time>2012-01-12T13:55:39Z</time>
      </trkpt>
      <trkpt lat="48.87563" lon="2.01185">
        <ele>174.14</ele>
        <time>2012-01-12T13:55:40Z</time>
      </trkpt>
      <trkpt lat="48.87565" lon="2.01187">
        <ele>174.14</ele>
        <time>2012-01-12T13:55:42Z</time>
      </trkpt>
      <trkpt lat="48.87582" lon="2.01192">
        <ele>174.14</ele>
        <time>2012-01-12T13:55:56Z</time>
      </trkpt>
      <trkpt lat="48.87593" lon="2.012">
        <ele>175.58</ele>
        <time>2012-01-12T13:56:12Z</time>
      </trkpt>
      <trkpt lat="48.87607" lon="2.01204">
        <ele>174.62</ele>
        <time>2012-01-12T13:56:26Z</time>
      </trkpt>
      <trkpt lat="48.87616" lon="2.01199">
        <ele>176.06</ele>
        <time>2012-01-12T13:56:33Z</time>
      </trkpt>
      <trkpt lat="48.87621" lon="2.01183">
        <ele>177.5</ele>
        <time>2012-01-12T13:56:46Z</time>
      </trkpt>
      <trkpt lat="48.87621" lon="2.01183">
        <ele>177.5</ele>
        <time>2012-01-12T13:57:15Z</time>
      </trkpt>
      <trkpt lat="48.87627" lon="2.01168">
        <ele>176.54</ele>
        <time>2012-01-12T13:57:33Z</time>
      </trkpt>
      <trkpt lat="48.87636" lon="2.01142">
        <ele>174.14</ele>
        <time>2012-01-12T13:57:46Z</time>
      </trkpt>
      <trkpt lat="48.87643" lon="2.01113">
        <ele>169.81</ele>
        <time>2012-01-12T13:58:02Z</time>
      </trkpt>
      <trkpt lat="48.87649" lon="2.01081">
        <ele>170.77</ele>
        <time>2012-01-12T13:58:19Z</time>
      </trkpt>
      <trkpt lat="48.87655" lon="2.01055">
        <ele>171.25</ele>
        <time>2012-01-12T13:58:34Z</time>
      </trkpt>
      <trkpt lat="48.8766" lon="2.01032">
        <ele>171.73</ele>
        <time>2012-01-12T13:58:48Z</time>
      </trkpt>
      <trkpt lat="48.87671" lon="2.00999">
        <ele>172.21</ele>
        <time>2012-01-12T13:59:02Z</time>
      </trkpt>
      <trkpt lat="48.8768" lon="2.00983">
        <ele>171.73</ele>
        <time>2012-01-12T13:59:13Z</time>
      </trkpt>
      <trkpt lat="48.87683" lon="2.00976">
        <ele>171.25</ele>
        <time>2012-01-12T13:59:17Z</time>
      </trkpt>
      <trkpt lat="48.87695" lon="2.00955">
        <ele>168.37</ele>
        <time>2012-01-12T13:59:32Z</time>
      </trkpt>
      <trkpt lat="48.87699" lon="2.00948">
        <ele>167.89</ele>
        <time>2012-01-12T13:59:37Z</time>
      </trkpt>
      <trkpt lat="48.87702" lon="2.00936">
        <ele>165.48</ele>
        <time>2012-01-12T13:59:54Z</time>
      </trkpt>
      <trkpt lat="48.87702" lon="2.00936">
        <ele>165.48</ele>
        <time>2012-01-12T14:00:11Z</time>
      </trkpt>
      <trkpt lat="48.87705" lon="2.00924">
        <ele>165.96</ele>
        <time>2012-01-12T14:00:17Z</time>
      </trkpt>
      <trkpt lat="48.87704" lon="2.00913">
        <ele>166.93</ele>
        <time>2012-01-12T14:00:32Z</time>
      </trkpt>
      <trkpt lat="48.87703" lon="2.00902">
        <ele>166.45</ele>
        <time>2012-01-12T14:00:58Z</time>
      </trkpt>
      <trkpt lat="48.87699" lon="2.00884">
        <ele>167.89</ele>
        <time>2012-01-12T14:01:06Z</time>
      </trkpt>
      <trkpt lat="48.87696" lon="2.00878">
        <ele>168.37</ele>
        <time>2012-01-12T14:01:10Z</time>
      </trkpt>
      <trkpt lat="48.87692" lon="2.0085">
        <ele>165.96</ele>
        <time>2012-01-12T14:01:25Z</time>
      </trkpt>
      <trkpt lat="48.8769" lon="2.00843">
        <ele>165</ele>
        <time>2012-01-12T14:01:40Z</time>
      </trkpt>
      <trkpt lat="48.87689" lon="2.00833">
        <ele>164.52</ele>
        <time>2012-01-12T14:01:53Z</time>
      </trkpt>
      <trkpt lat="48.87688" lon="2.00817">
        <ele>163.56</ele>
        <time>2012-01-12T14:02:07Z</time>
      </trkpt>
      <trkpt lat="48.87686" lon="2.00792">
        <ele>164.52</ele>
        <time>2012-01-12T14:02:19Z</time>
      </trkpt>
      <trkpt lat="48.87685" lon="2.00789">
        <ele>164.52</ele>
        <time>2012-01-12T14:02:32Z</time>
      </trkpt>
      <trkpt lat="48.87685" lon="2.00789">
        <ele>164.52</ele>
        <time>2012-01-12T14:02:57Z</time>
      </trkpt>
      <trkpt lat="48.87685" lon="2.00789">
        <ele>164.52</ele>
        <time>2012-01-12T14:03:18Z</time>
      </trkpt>
      <trkpt lat="48.87685" lon="2.00789">
        <ele>164.52</ele>
        <time>2012-01-12T14:03:32Z</time>
      </trkpt>
      <trkpt lat="48.87684" lon="2.00776">
        <ele>165.48</ele>
        <time>2012-01-12T14:03:45Z</time>
      </trkpt>
      <trkpt lat="48.87685" lon="2.00759">
        <ele>165</ele>
        <time>2012-01-12T14:03:57Z</time>
      </trkpt>
      <trkpt lat="48.87686" lon="2.00757">
        <ele>164.52</ele>
        <time>2012-01-12T14:04:00Z</time>
      </trkpt>
      <trkpt lat="48.87686" lon="2.0073">
        <ele>164.04</ele>
        <time>2012-01-12T14:04:15Z</time>
      </trkpt>
      <trkpt lat="48.87684" lon="2.0071">
        <ele>160.68</ele>
        <time>2012-01-12T14:04:29Z</time>
      </trkpt>
      <trkpt lat="48.8768" lon="2.00693">
        <ele>156.83</ele>
        <time>2012-01-12T14:04:39Z</time>
      </trkpt>
      <trkpt lat="48.87679" lon="2.00655">
        <ele>159.72</ele>
        <time>2012-01-12T14:04:57Z</time>
      </trkpt>
      <trkpt lat="48.87679" lon="2.00652">
        <ele>159.72</ele>
        <time>2012-01-12T14:04:59Z</time>
      </trkpt>
      <trkpt lat="48.87677" lon="2.00623">
        <ele>160.68</ele>
        <time>2012-01-12T14:05:13Z</time>
      </trkpt>
      <trkpt lat="48.87675" lon="2.00598">
        <ele>161.16</ele>
        <time>2012-01-12T14:05:25Z</time>
      </trkpt>
      <trkpt lat="48.87674" lon="2.00588">
        <ele>161.64</ele>
        <time>2012-01-12T14:05:30Z</time>
      </trkpt>
      <trkpt lat="48.87672" lon="2.00552">
        <ele>162.6</ele>
        <time>2012-01-12T14:05:47Z</time>
      </trkpt>
      <trkpt lat="48.8767" lon="2.00526">
        <ele>162.6</ele>
        <time>2012-01-12T14:06:02Z</time>
      </trkpt>
      <trkpt lat="48.8767" lon="2.00518">
        <ele>162.6</ele>
        <time>2012-01-12T14:06:09Z</time>
      </trkpt>
      <trkpt lat="48.87668" lon="2.00505">
        <ele>165</ele>
        <time>2012-01-12T14:06:16Z</time>
      </trkpt>
      <trkpt lat="48.87667" lon="2.0049">
        <ele>166.93</ele>
        <time>2012-01-12T14:06:29Z</time>
      </trkpt>
      <trkpt lat="48.87666" lon="2.0048">
        <ele>168.37</ele>
        <time>2012-01-12T14:06:34Z</time>
      </trkpt>
      <trkpt lat="48.87665" lon="2.00447">
        <ele>166.45</ele>
        <time>2012-01-12T14:06:50Z</time>
      </trkpt>
      <trkpt lat="48.87663" lon="2.00426">
        <ele>166.45</ele>
        <time>2012-01-12T14:07:02Z</time>
      </trkpt>
      <trkpt lat="48.87661" lon="2.00412">
        <ele>165</ele>
        <time>2012-01-12T14:07:10Z</time>
      </trkpt>
      <trkpt lat="48.87662" lon="2.00397">
        <ele>164.52</ele>
        <time>2012-01-12T14:07:18Z</time>
      </trkpt>
      <trkpt lat="48.87658" lon="2.00358">
        <ele>165.96</ele>
        <time>2012-01-12T14:07:38Z</time>
      </trkpt>
      <trkpt lat="48.87654" lon="2.00325">
        <ele>166.93</ele>
        <time>2012-01-12T14:07:54Z</time>
      </trkpt>
      <trkpt lat="48.87654" lon="2.00307">
        <ele>166.45</ele>
        <time>2012-01-12T14:08:03Z</time>
      </trkpt>
      <trkpt lat="48.87653" lon="2.00301">
        <ele>166.45</ele>
        <time>2012-01-12T14:08:07Z</time>
      </trkpt>
      <trkpt lat="48.87657" lon="2.00289">
        <ele>165.48</ele>
        <time>2012-01-12T14:08:21Z</time>
      </trkpt>
      <trkpt lat="48.87655" lon="2.00287">
        <ele>165.48</ele>
        <time>2012-01-12T14:08:31Z</time>
      </trkpt>
      <trkpt lat="48.87655" lon="2.00287">
        <ele>165.48</ele>
        <time>2012-01-12T14:08:53Z</time>
      </trkpt>
      <trkpt lat="48.87655" lon="2.00282">
        <ele>165</ele>
        <time>2012-01-12T14:09:10Z</time>
      </trkpt>
      <trkpt lat="48.87658" lon="2.0027">
        <ele>165.48</ele>
        <time>2012-01-12T14:09:32Z</time>
      </trkpt>
      <trkpt lat="48.87658" lon="2.00266">
        <ele>165.48</ele>
        <time>2012-01-12T14:09:34Z</time>
      </trkpt>
      <trkpt lat="48.87659" lon="2.00259">
        <ele>165.96</ele>
        <time>2012-01-12T14:09:37Z</time>
      </trkpt>
      <trkpt lat="48.87663" lon="2.00244">
        <ele>167.41</ele>
        <time>2012-01-12T14:09:45Z</time>
      </trkpt>
      <trkpt lat="48.87669" lon="2.0023">
        <ele>167.89</ele>
        <time>2012-01-12T14:09:59Z</time>
      </trkpt>
      <trkpt lat="48.87676" lon="2.00203">
        <ele>168.37</ele>
        <time>2012-01-12T14:10:13Z</time>
      </trkpt>
      <trkpt lat="48.87681" lon="2.00179">
        <ele>167.41</ele>
        <time>2012-01-12T14:10:26Z</time>
      </trkpt>
      <trkpt lat="48.87685" lon="2.0015">
        <ele>167.41</ele>
        <time>2012-01-12T14:10:42Z</time>
      </trkpt>
      <trkpt lat="48.8769" lon="2.00122">
        <ele>167.41</ele>
        <time>2012-01-12T14:10:57Z</time>
      </trkpt>
      <trkpt lat="48.87693" lon="2.0011">
        <ele>166.93</ele>
        <time>2012-01-12T14:11:03Z</time>
      </trkpt>
      <trkpt lat="48.87706" lon="2.00075">
        <ele>171.25</ele>
        <time>2012-01-12T14:11:19Z</time>
      </trkpt>
      <trkpt lat="48.87713" lon="2.00055">
        <ele>173.66</ele>
        <time>2012-01-12T14:11:31Z</time>
      </trkpt>
      <trkpt lat="48.87717" lon="2.00038">
        <ele>173.66</ele>
        <time>2012-01-12T14:11:41Z</time>
      </trkpt>
      <trkpt lat="48.87731" lon="2.00015">
        <ele>174.62</ele>
        <time>2012-01-12T14:11:57Z</time>
      </trkpt>
      <trkpt lat="48.8775" lon="1.99989">
        <ele>174.14</ele>
        <time>2012-01-12T14:12:15Z</time>
      </trkpt>
      <trkpt lat="48.87759" lon="1.99972">
        <ele>171.73</ele>
        <time>2012-01-12T14:12:31Z</time>
      </trkpt>
      <trkpt lat="48.87778" lon="1.99954">
        <ele>170.77</ele>
        <time>2012-01-12T14:12:45Z</time>
      </trkpt>
      <trkpt lat="48.87797" lon="1.99936">
        <ele>171.25</ele>
        <time>2012-01-12T14:13:00Z</time>
      </trkpt>
      <trkpt lat="48.87813" lon="1.99919">
        <ele>173.17</ele>
        <time>2012-01-12T14:13:16Z</time>
      </trkpt>
      <trkpt lat="48.87829" lon="1.99905">
        <ele>177.02</ele>
        <time>2012-01-12T14:13:31Z</time>
      </trkpt>
      <trkpt lat="48.87848" lon="1.99886">
        <ele>177.02</ele>
        <time>2012-01-12T14:13:48Z</time>
      </trkpt>
      <trkpt lat="48.87864" lon="1.99871">
        <ele>175.1</ele>
        <time>2012-01-12T14:14:03Z</time>
      </trkpt>
      <trkpt lat="48.87883" lon="1.99853">
        <ele>173.66</ele>
        <time>2012-01-12T14:14:20Z</time>
      </trkpt>
      <trkpt lat="48.87903" lon="1.99833">
        <ele>175.1</ele>
        <time>2012-01-12T14:14:36Z</time>
      </trkpt>
      <trkpt lat="48.87917" lon="1.99817">
        <ele>175.1</ele>
        <time>2012-01-12T14:14:51Z</time>
      </trkpt>
      <trkpt lat="48.87925" lon="1.99807">
        <ele>176.06</ele>
        <time>2012-01-12T14:14:58Z</time>
      </trkpt>
      <trkpt lat="48.87937" lon="1.99799">
        <ele>175.1</ele>
        <time>2012-01-12T14:15:10Z</time>
      </trkpt>
      <trkpt lat="48.87937" lon="1.99799">
        <ele>175.1</ele>
        <time>2012-01-12T14:15:37Z</time>
      </trkpt>
      <trkpt lat="48.87942" lon="1.99775">
        <ele>169.33</ele>
        <time>2012-01-12T14:15:51Z</time>
      </trkpt>
      <trkpt lat="48.87942" lon="1.99769">
        <ele>167.89</ele>
        <time>2012-01-12T14:15:54Z</time>
      </trkpt>
      <trkpt lat="48.87942" lon="1.9976">
        <ele>165.48</ele>
        <time>2012-01-12T14:15:59Z</time>
      </trkpt>
      <trkpt lat="48.87942" lon="1.99732">
        <ele>160.2</ele>
        <time>2012-01-12T14:16:14Z</time>
      </trkpt>
      <trkpt lat="48.87939" lon="1.99707">
        <ele>158.27</ele>
        <time>2012-01-12T14:16:28Z</time>
      </trkpt>
      <trkpt lat="48.87939" lon="1.9968">
        <ele>157.79</ele>
        <time>2012-01-12T14:16:43Z</time>
      </trkpt>
      <trkpt lat="48.87939" lon="1.99676">
        <ele>156.83</ele>
        <time>2012-01-12T14:16:45Z</time>
      </trkpt>
      <trkpt lat="48.87941" lon="1.99666">
        <ele>156.35</ele>
        <time>2012-01-12T14:16:50Z</time>
      </trkpt>
      <trkpt lat="48.87943" lon="1.99632">
        <ele>154.43</ele>
        <time>2012-01-12T14:17:07Z</time>
      </trkpt>
      <trkpt lat="48.87941" lon="1.99607">
        <ele>150.58</ele>
        <time>2012-01-12T14:17:21Z</time>
      </trkpt>
      <trkpt lat="48.87941" lon="1.9958">
        <ele>149.62</ele>
        <time>2012-01-12T14:17:36Z</time>
      </trkpt>
      <trkpt lat="48.87942" lon="1.99567">
        <ele>151.06</ele>
        <time>2012-01-12T14:17:43Z</time>
      </trkpt>
      <trkpt lat="48.87943" lon="1.99548">
        <ele>151.54</ele>
        <time>2012-01-12T14:17:52Z</time>
      </trkpt>
      <trkpt lat="48.87944" lon="1.99519">
        <ele>152.03</ele>
        <time>2012-01-12T14:18:07Z</time>
      </trkpt>
      <trkpt lat="48.87944" lon="1.99498">
        <ele>150.1</ele>
        <time>2012-01-12T14:18:19Z</time>
      </trkpt>
      <trkpt lat="48.87941" lon="1.99484">
        <ele>149.14</ele>
        <time>2012-01-12T14:18:27Z</time>
      </trkpt>
      <trkpt lat="48.87944" lon="1.99461">
        <ele>151.06</ele>
        <time>2012-01-12T14:18:40Z</time>
      </trkpt>
      <trkpt lat="48.87945" lon="1.99455">
        <ele>151.54</ele>
        <time>2012-01-12T14:18:43Z</time>
      </trkpt>
      <trkpt lat="48.87945" lon="1.99441">
        <ele>151.06</ele>
        <time>2012-01-12T14:18:50Z</time>
      </trkpt>
      <trkpt lat="48.87944" lon="1.99417">
        <ele>151.06</ele>
        <time>2012-01-12T14:19:04Z</time>
      </trkpt>
      <trkpt lat="48.87946" lon="1.99402">
        <ele>151.54</ele>
        <time>2012-01-12T14:19:12Z</time>
      </trkpt>
      <trkpt lat="48.87945" lon="1.99388">
        <ele>150.58</ele>
        <time>2012-01-12T14:19:20Z</time>
      </trkpt>
      <trkpt lat="48.87944" lon="1.99384">
        <ele>150.1</ele>
        <time>2012-01-12T14:19:22Z</time>
      </trkpt>
      <trkpt lat="48.87946" lon="1.99361">
        <ele>148.18</ele>
        <time>2012-01-12T14:19:35Z</time>
      </trkpt>
      <trkpt lat="48.87945" lon="1.99339">
        <ele>145.78</ele>
        <time>2012-01-12T14:19:49Z</time>
      </trkpt>
      <trkpt lat="48.87945" lon="1.9932">
        <ele>142.41</ele>
        <time>2012-01-12T14:20:02Z</time>
      </trkpt>
      <trkpt lat="48.87946" lon="1.99317">
        <ele>142.41</ele>
        <time>2012-01-12T14:20:04Z</time>
      </trkpt>
      <trkpt lat="48.87945" lon="1.99295">
        <ele>142.89</ele>
        <time>2012-01-12T14:20:18Z</time>
      </trkpt>
      <trkpt lat="48.87945" lon="1.99292">
        <ele>143.37</ele>
        <time>2012-01-12T14:20:29Z</time>
      </trkpt>
      <trkpt lat="48.87946" lon="1.99267">
        <ele>148.66</ele>
        <time>2012-01-12T14:20:43Z</time>
      </trkpt>
      <trkpt lat="48.87946" lon="1.99257">
        <ele>149.62</ele>
        <time>2012-01-12T14:20:52Z</time>
      </trkpt>
      <trkpt lat="48.87947" lon="1.99254">
        <ele>150.1</ele>
        <time>2012-01-12T14:20:54Z</time>
      </trkpt>
      <trkpt lat="48.87949" lon="1.99228">
        <ele>151.06</ele>
        <time>2012-01-12T14:21:09Z</time>
      </trkpt>
      <trkpt lat="48.87949" lon="1.99211">
        <ele>152.03</ele>
        <time>2012-01-12T14:21:18Z</time>
      </trkpt>
      <trkpt lat="48.8795" lon="1.99203">
        <ele>151.54</ele>
        <time>2012-01-12T14:21:23Z</time>
      </trkpt>
      <trkpt lat="48.8795" lon="1.9918">
        <ele>150.1</ele>
        <time>2012-01-12T14:21:37Z</time>
      </trkpt>
      <trkpt lat="48.87951" lon="1.99175">
        <ele>150.58</ele>
        <time>2012-01-12T14:21:40Z</time>
      </trkpt>
      <trkpt lat="48.87952" lon="1.99171">
        <ele>151.06</ele>
        <time>2012-01-12T14:21:43Z</time>
      </trkpt>
      <trkpt lat="48.87953" lon="1.99142">
        <ele>152.51</ele>
        <time>2012-01-12T14:21:58Z</time>
      </trkpt>
      <trkpt lat="48.87954" lon="1.99123">
        <ele>151.06</ele>
        <time>2012-01-12T14:22:10Z</time>
      </trkpt>
      <trkpt lat="48.87954" lon="1.99117">
        <ele>152.03</ele>
        <time>2012-01-12T14:22:14Z</time>
      </trkpt>
      <trkpt lat="48.87953" lon="1.99098">
        <ele>153.95</ele>
        <time>2012-01-12T14:22:27Z</time>
      </trkpt>
      <trkpt lat="48.87955" lon="1.99074">
        <ele>157.79</ele>
        <time>2012-01-12T14:22:41Z</time>
      </trkpt>
      <trkpt lat="48.87953" lon="1.99054">
        <ele>160.2</ele>
        <time>2012-01-12T14:22:53Z</time>
      </trkpt>
      <trkpt lat="48.87953" lon="1.99052">
        <ele>160.68</ele>
        <time>2012-01-12T14:22:55Z</time>
      </trkpt>
      <trkpt lat="48.87953" lon="1.99039">
        <ele>162.6</ele>
        <time>2012-01-12T14:23:07Z</time>
      </trkpt>
      <trkpt lat="48.87956" lon="1.99033">
        <ele>162.6</ele>
        <time>2012-01-12T14:23:32Z</time>
      </trkpt>
      <trkpt lat="48.87974" lon="1.99016">
        <ele>162.6</ele>
        <time>2012-01-12T14:23:45Z</time>
      </trkpt>
      <trkpt lat="48.87976" lon="1.99006">
        <ele>163.08</ele>
        <time>2012-01-12T14:23:53Z</time>
      </trkpt>
      <trkpt lat="48.87969" lon="1.98996">
        <ele>164.04</ele>
        <time>2012-01-12T14:24:01Z</time>
      </trkpt>
      <trkpt lat="48.87964" lon="1.98982">
        <ele>163.56</ele>
        <time>2012-01-12T14:24:20Z</time>
      </trkpt>
      <trkpt lat="48.87964" lon="1.98982">
        <ele>163.56</ele>
        <time>2012-01-12T14:24:33Z</time>
      </trkpt>
      <trkpt lat="48.87962" lon="1.98971">
        <ele>165</ele>
        <time>2012-01-12T14:24:40Z</time>
      </trkpt>
      <trkpt lat="48.87969" lon="1.98945">
        <ele>170.29</ele>
        <time>2012-01-12T14:24:53Z</time>
      </trkpt>
      <trkpt lat="48.87979" lon="1.98918">
        <ele>174.14</ele>
        <time>2012-01-12T14:25:07Z</time>
      </trkpt>
      <trkpt lat="48.87982" lon="1.98906">
        <ele>173.66</ele>
        <time>2012-01-12T14:25:13Z</time>
      </trkpt>
      <trkpt lat="48.87985" lon="1.98891">
        <ele>171.73</ele>
        <time>2012-01-12T14:25:21Z</time>
      </trkpt>
      <trkpt lat="48.87989" lon="1.98873">
        <ele>167.89</ele>
        <time>2012-01-12T14:25:35Z</time>
      </trkpt>
      <trkpt lat="48.87991" lon="1.98849">
        <ele>167.89</ele>
        <time>2012-01-12T14:25:47Z</time>
      </trkpt>
      <trkpt lat="48.87991" lon="1.98842">
        <ele>167.89</ele>
        <time>2012-01-12T14:25:51Z</time>
      </trkpt>
      <trkpt lat="48.87991" lon="1.98819">
        <ele>162.6</ele>
        <time>2012-01-12T14:26:04Z</time>
      </trkpt>
      <trkpt lat="48.87992" lon="1.98806">
        <ele>160.2</ele>
        <time>2012-01-12T14:26:10Z</time>
      </trkpt>
      <trkpt lat="48.87993" lon="1.98798">
        <ele>159.24</ele>
        <time>2012-01-12T14:26:14Z</time>
      </trkpt>
      <trkpt lat="48.87994" lon="1.98761">
        <ele>159.72</ele>
        <time>2012-01-12T14:26:31Z</time>
      </trkpt>
      <trkpt lat="48.88" lon="1.98732">
        <ele>165.48</ele>
        <time>2012-01-12T14:26:45Z</time>
      </trkpt>
      <trkpt lat="48.88005" lon="1.98704">
        <ele>165.48</ele>
        <time>2012-01-12T14:27:00Z</time>
      </trkpt>
      <trkpt lat="48.88009" lon="1.98689">
        <ele>166.93</ele>
        <time>2012-01-12T14:27:15Z</time>
      </trkpt>
      <trkpt lat="48.88015" lon="1.98663">
        <ele>167.41</ele>
        <time>2012-01-12T14:27:28Z</time>
      </trkpt>
      <trkpt lat="48.88017" lon="1.98653">
        <ele>167.89</ele>
        <time>2012-01-12T14:27:34Z</time>
      </trkpt>
      <trkpt lat="48.88021" lon="1.98621">
        <ele>167.89</ele>
        <time>2012-01-12T14:27:49Z</time>
      </trkpt>
      <trkpt lat="48.88026" lon="1.98587">
        <ele>169.33</ele>
        <time>2012-01-12T14:28:06Z</time>
      </trkpt>
      <trkpt lat="48.88019" lon="1.98579">
        <ele>170.29</ele>
        <time>2012-01-12T14:28:14Z</time>
      </trkpt>
      <trkpt lat="48.88" lon="1.98569">
        <ele>168.37</ele>
        <time>2012-01-12T14:28:30Z</time>
      </trkpt>
      <trkpt lat="48.87992" lon="1.9856">
        <ele>170.29</ele>
        <time>2012-01-12T14:28:46Z</time>
      </trkpt>
      <trkpt lat="48.87972" lon="1.9855">
        <ele>173.17</ele>
        <time>2012-01-12T14:29:00Z</time>
      </trkpt>
      <trkpt lat="48.87954" lon="1.98542">
        <ele>175.1</ele>
        <time>2012-01-12T14:29:13Z</time>
      </trkpt>
      <trkpt lat="48.87936" lon="1.98535">
        <ele>178.94</ele>
        <time>2012-01-12T14:29:27Z</time>
      </trkpt>
      <trkpt lat="48.87935" lon="1.98534">
        <ele>178.94</ele>
        <time>2012-01-12T14:29:28Z</time>
      </trkpt>
      <trkpt lat="48.87933" lon="1.98531">
        <ele>174.14</ele>
        <time>2012-01-12T14:29:36Z</time>
      </trkpt>
      <trkpt lat="48.87914" lon="1.98522">
        <ele>171.73</ele>
        <time>2012-01-12T14:29:52Z</time>
      </trkpt>
      <trkpt lat="48.87894" lon="1.98521">
        <ele>171.25</ele>
        <time>2012-01-12T14:30:06Z</time>
      </trkpt>
      <trkpt lat="48.87879" lon="1.98518">
        <ele>171.73</ele>
        <time>2012-01-12T14:30:17Z</time>
      </trkpt>
      <trkpt lat="48.87868" lon="1.98517">
        <ele>172.21</ele>
        <time>2012-01-12T14:30:26Z</time>
      </trkpt>
      <trkpt lat="48.87849" lon="1.98518">
        <ele>171.25</ele>
        <time>2012-01-12T14:30:41Z</time>
      </trkpt>
      <trkpt lat="48.87849" lon="1.98518">
        <ele>171.25</ele>
        <time>2012-01-12T14:31:01Z</time>
      </trkpt>
      <trkpt lat="48.87833" lon="1.98504">
        <ele>171.25</ele>
        <time>2012-01-12T14:31:16Z</time>
      </trkpt>
      <trkpt lat="48.87829" lon="1.98503">
        <ele>171.25</ele>
        <time>2012-01-12T14:31:19Z</time>
      </trkpt>
      <trkpt lat="48.87816" lon="1.98489">
        <ele>171.73</ele>
        <time>2012-01-12T14:31:31Z</time>
      </trkpt>
      <trkpt lat="48.87804" lon="1.9848">
        <ele>171.25</ele>
        <time>2012-01-12T14:31:46Z</time>
      </trkpt>
      <trkpt lat="48.87803" lon="1.98479">
        <ele>171.25</ele>
        <time>2012-01-12T14:31:50Z</time>
      </trkpt>
      <trkpt lat="48.87805" lon="1.98462">
        <ele>170.29</ele>
        <time>2012-01-12T14:32:03Z</time>
      </trkpt>
      <trkpt lat="48.87808" lon="1.98463">
        <ele>170.29</ele>
        <time>2012-01-12T14:32:07Z</time>
      </trkpt>
      <trkpt lat="48.87812" lon="1.98475">
        <ele>170.77</ele>
        <time>2012-01-12T14:32:21Z</time>
      </trkpt>
      <trkpt lat="48.87812" lon="1.98475">
        <ele>170.77</ele>
        <time>2012-01-12T14:32:46Z</time>
      </trkpt>
      <trkpt lat="48.878" lon="1.98492">
        <ele>170.77</ele>
        <time>2012-01-12T14:33:00Z</time>
      </trkpt>
      <trkpt lat="48.87797" lon="1.98498">
        <ele>170.29</ele>
        <time>2012-01-12T14:33:04Z</time>
      </trkpt>
      <trkpt lat="48.87792" lon="1.98509">
        <ele>171.25</ele>
        <time>2012-01-12T14:33:11Z</time>
      </trkpt>
      <trkpt lat="48.87787" lon="1.98518">
        <ele>170.29</ele>
        <time>2012-01-12T14:33:17Z</time>
      </trkpt>
      <trkpt lat="48.87784" lon="1.98525">
        <ele>170.77</ele>
        <time>2012-01-12T14:33:22Z</time>
      </trkpt>
      <trkpt lat="48.87769" lon="1.98534">
        <ele>169.33</ele>
        <time>2012-01-12T14:33:34Z</time>
      </trkpt>
      <trkpt lat="48.87765" lon="1.98538">
        <ele>168.85</ele>
        <time>2012-01-12T14:33:38Z</time>
      </trkpt>
      <trkpt lat="48.87759" lon="1.98535">
        <ele>169.81</ele>
        <time>2012-01-12T14:33:50Z</time>
      </trkpt>
      <trkpt lat="48.87754" lon="1.98539">
        <ele>171.25</ele>
        <time>2012-01-12T14:34:19Z</time>
      </trkpt>
      <trkpt lat="48.87735" lon="1.98544">
        <ele>171.73</ele>
        <time>2012-01-12T14:34:33Z</time>
      </trkpt>
      <trkpt lat="48.87722" lon="1.98546">
        <ele>170.77</ele>
        <time>2012-01-12T14:34:49Z</time>
      </trkpt>
      <trkpt lat="48.87722" lon="1.98546">
        <ele>170.77</ele>
        <time>2012-01-12T14:35:14Z</time>
      </trkpt>
      <trkpt lat="48.87719" lon="1.98546">
        <ele>170.29</ele>
        <time>2012-01-12T14:35:28Z</time>
      </trkpt>
      <trkpt lat="48.87713" lon="1.98549">
        <ele>169.33</ele>
        <time>2012-01-12T14:35:32Z</time>
      </trkpt>
      <trkpt lat="48.87695" lon="1.9857">
        <ele>166.45</ele>
        <time>2012-01-12T14:35:48Z</time>
      </trkpt>
      <trkpt lat="48.87679" lon="1.98601">
        <ele>165.48</ele>
        <time>2012-01-12T14:36:06Z</time>
      </trkpt>
      <trkpt lat="48.87677" lon="1.98606">
        <ele>165.48</ele>
        <time>2012-01-12T14:36:10Z</time>
      </trkpt>
      <trkpt lat="48.87674" lon="1.98613">
        <ele>165.96</ele>
        <time>2012-01-12T14:36:14Z</time>
      </trkpt>
      <trkpt lat="48.87663" lon="1.98645">
        <ele>166.45</ele>
        <time>2012-01-12T14:36:31Z</time>
      </trkpt>
      <trkpt lat="48.87661" lon="1.98653">
        <ele>166.93</ele>
        <time>2012-01-12T14:36:35Z</time>
      </trkpt>
      <trkpt lat="48.87653" lon="1.98681">
        <ele>169.33</ele>
        <time>2012-01-12T14:36:50Z</time>
      </trkpt>
      <trkpt lat="48.87651" lon="1.987">
        <ele>170.29</ele>
        <time>2012-01-12T14:37:04Z</time>
      </trkpt>
      <trkpt lat="48.87649" lon="1.98705">
        <ele>169.81</ele>
        <time>2012-01-12T14:37:44Z</time>
      </trkpt>
      <trkpt lat="48.87648" lon="1.98711">
        <ele>169.81</ele>
        <time>2012-01-12T14:37:47Z</time>
      </trkpt>
      <trkpt lat="48.87642" lon="1.98745">
        <ele>171.25</ele>
        <time>2012-01-12T14:38:04Z</time>
      </trkpt>
      <trkpt lat="48.87636" lon="1.9878">
        <ele>170.77</ele>
        <time>2012-01-12T14:38:20Z</time>
      </trkpt>
      <trkpt lat="48.87636" lon="1.98815">
        <ele>171.25</ele>
        <time>2012-01-12T14:38:37Z</time>
      </trkpt>
      <trkpt lat="48.87637" lon="1.98833">
        <ele>172.21</ele>
        <time>2012-01-12T14:38:46Z</time>
      </trkpt>
      <trkpt lat="48.87637" lon="1.98842">
        <ele>172.21</ele>
        <time>2012-01-12T14:38:51Z</time>
      </trkpt>
      <trkpt lat="48.87644" lon="1.98877">
        <ele>171.25</ele>
        <time>2012-01-12T14:39:07Z</time>
      </trkpt>
      <trkpt lat="48.87648" lon="1.98905">
        <ele>166.45</ele>
        <time>2012-01-12T14:39:21Z</time>
      </trkpt>
      <trkpt lat="48.87646" lon="1.98938">
        <ele>162.12</ele>
        <time>2012-01-12T14:39:37Z</time>
      </trkpt>
      <trkpt lat="48.87639" lon="1.98972">
        <ele>157.79</ele>
        <time>2012-01-12T14:39:52Z</time>
      </trkpt>
      <trkpt lat="48.8763" lon="1.98994">
        <ele>156.35</ele>
        <time>2012-01-12T14:40:06Z</time>
      </trkpt>
      <trkpt lat="48.87626" lon="1.98999">
        <ele>156.35</ele>
        <time>2012-01-12T14:40:10Z</time>
      </trkpt>
      <trkpt lat="48.8761" lon="1.99016">
        <ele>153.95</ele>
        <time>2012-01-12T14:40:26Z</time>
      </trkpt>
      <trkpt lat="48.87604" lon="1.99018">
        <ele>153.95</ele>
        <time>2012-01-12T14:40:31Z</time>
      </trkpt>
      <trkpt lat="48.87581" lon="1.99018">
        <ele>150.58</ele>
        <time>2012-01-12T14:40:48Z</time>
      </trkpt>
      <trkpt lat="48.87565" lon="1.99016">
        <ele>148.66</ele>
        <time>2012-01-12T14:41:01Z</time>
      </trkpt>
      <trkpt lat="48.87551" lon="1.99013">
        <ele>151.06</ele>
        <time>2012-01-12T14:41:15Z</time>
      </trkpt>
      <trkpt lat="48.87549" lon="1.99013">
        <ele>151.06</ele>
        <time>2012-01-12T14:41:16Z</time>
      </trkpt>
      <trkpt lat="48.87542" lon="1.99008">
        <ele>150.58</ele>
        <time>2012-01-12T14:41:30Z</time>
      </trkpt>
      <trkpt lat="48.87529" lon="1.99001">
        <ele>148.18</ele>
        <time>2012-01-12T14:41:43Z</time>
      </trkpt>
      <trkpt lat="48.87514" lon="1.98995">
        <ele>147.22</ele>
        <time>2012-01-12T14:41:58Z</time>
      </trkpt>
      <trkpt lat="48.87513" lon="1.98994">
        <ele>147.22</ele>
        <time>2012-01-12T14:41:59Z</time>
      </trkpt>
      <trkpt lat="48.87504" lon="1.98986">
        <ele>145.3</ele>
        <time>2012-01-12T14:42:12Z</time>
      </trkpt>
      <trkpt lat="48.87494" lon="1.98977">
        <ele>145.78</ele>
        <time>2012-01-12T14:42:28Z</time>
      </trkpt>
      <trkpt lat="48.87481" lon="1.98958">
        <ele>145.3</ele>
        <time>2012-01-12T14:42:42Z</time>
      </trkpt>
      <trkpt lat="48.87475" lon="1.98944">
        <ele>142.41</ele>
        <time>2012-01-12T14:42:55Z</time>
      </trkpt>
      <trkpt lat="48.87471" lon="1.98925">
        <ele>140.01</ele>
        <time>2012-01-12T14:43:11Z</time>
      </trkpt>
      <trkpt lat="48.87465" lon="1.98902">
        <ele>137.61</ele>
        <time>2012-01-12T14:43:31Z</time>
      </trkpt>
      <trkpt lat="48.87459" lon="1.98882">
        <ele>136.16</ele>
        <time>2012-01-12T14:43:46Z</time>
      </trkpt>
      <trkpt lat="48.87461" lon="1.98861">
        <ele>131.36</ele>
        <time>2012-01-12T14:44:03Z</time>
      </trkpt>
      <trkpt lat="48.87462" lon="1.98844">
        <ele>130.4</ele>
        <time>2012-01-12T14:44:13Z</time>
      </trkpt>
      <trkpt lat="48.87468" lon="1.9881">
        <ele>130.4</ele>
        <time>2012-01-12T14:44:32Z</time>
      </trkpt>
      <trkpt lat="48.87471" lon="1.98782">
        <ele>134.72</ele>
        <time>2012-01-12T14:44:48Z</time>
      </trkpt>
      <trkpt lat="48.87471" lon="1.98754">
        <ele>137.61</ele>
        <time>2012-01-12T14:45:03Z</time>
      </trkpt>
      <trkpt lat="48.87466" lon="1.98729">
        <ele>135.2</ele>
        <time>2012-01-12T14:45:18Z</time>
      </trkpt>
      <trkpt lat="48.87462" lon="1.98705">
        <ele>134.72</ele>
        <time>2012-01-12T14:45:31Z</time>
      </trkpt>
      <trkpt lat="48.87456" lon="1.98682">
        <ele>134.24</ele>
        <time>2012-01-12T14:45:44Z</time>
      </trkpt>
      <trkpt lat="48.87452" lon="1.98654">
        <ele>134.72</ele>
        <time>2012-01-12T14:45:58Z</time>
      </trkpt>
      <trkpt lat="48.87455" lon="1.98641">
        <ele>133.76</ele>
        <time>2012-01-12T14:46:04Z</time>
      </trkpt>
      <trkpt lat="48.87453" lon="1.98635">
        <ele>133.28</ele>
        <time>2012-01-12T14:46:07Z</time>
      </trkpt>
      <trkpt lat="48.87458" lon="1.98624">
        <ele>131.84</ele>
        <time>2012-01-12T14:46:13Z</time>
      </trkpt>
      <trkpt lat="48.87462" lon="1.98615">
        <ele>129.43</ele>
        <time>2012-01-12T14:46:18Z</time>
      </trkpt>
      <trkpt lat="48.87465" lon="1.98609">
        <ele>127.03</ele>
        <time>2012-01-12T14:46:24Z</time>
      </trkpt>
      <trkpt lat="48.87469" lon="1.98591">
        <ele>125.11</ele>
        <time>2012-01-12T14:46:35Z</time>
      </trkpt>
      <trkpt lat="48.8747" lon="1.98579">
        <ele>123.19</ele>
        <time>2012-01-12T14:46:46Z</time>
      </trkpt>
      <trkpt lat="48.8747" lon="1.98579">
        <ele>123.19</ele>
        <time>2012-01-12T14:46:54Z</time>
      </trkpt>
      <trkpt lat="48.8747" lon="1.98558">
        <ele>123.67</ele>
        <time>2012-01-12T14:47:04Z</time>
      </trkpt>
      <trkpt lat="48.87477" lon="1.98541">
        <ele>124.15</ele>
        <time>2012-01-12T14:47:17Z</time>
      </trkpt>
      <trkpt lat="48.87466" lon="1.98525">
        <ele>125.11</ele>
        <time>2012-01-12T14:47:31Z</time>
      </trkpt>
      <trkpt lat="48.87455" lon="1.98514">
        <ele>127.99</ele>
        <time>2012-01-12T14:47:42Z</time>
      </trkpt>
      <trkpt lat="48.87438" lon="1.98493">
        <ele>129.43</ele>
        <time>2012-01-12T14:47:56Z</time>
      </trkpt>
      <trkpt lat="48.8742" lon="1.98478">
        <ele>129.92</ele>
        <time>2012-01-12T14:48:11Z</time>
      </trkpt>
      <trkpt lat="48.87417" lon="1.98477">
        <ele>129.43</ele>
        <time>2012-01-12T14:48:14Z</time>
      </trkpt>
      <trkpt lat="48.87408" lon="1.98466">
        <ele>129.43</ele>
        <time>2012-01-12T14:48:23Z</time>
      </trkpt>
      <trkpt lat="48.87404" lon="1.98463">
        <ele>129.43</ele>
        <time>2012-01-12T14:48:27Z</time>
      </trkpt>
      <trkpt lat="48.87389" lon="1.98448">
        <ele>128.47</ele>
        <time>2012-01-12T14:48:41Z</time>
      </trkpt>
      <trkpt lat="48.87387" lon="1.98446">
        <ele>128.47</ele>
        <time>2012-01-12T14:48:43Z</time>
      </trkpt>
      <trkpt lat="48.87383" lon="1.98442">
        <ele>127.99</ele>
        <time>2012-01-12T14:48:47Z</time>
      </trkpt>
      <trkpt lat="48.87364" lon="1.98422">
        <ele>125.59</ele>
        <time>2012-01-12T14:49:05Z</time>
      </trkpt>
      <trkpt lat="48.8736" lon="1.98396">
        <ele>124.15</ele>
        <time>2012-01-12T14:49:20Z</time>
      </trkpt>
      <trkpt lat="48.87359" lon="1.9839">
        <ele>124.63</ele>
        <time>2012-01-12T14:49:30Z</time>
      </trkpt>
      <trkpt lat="48.87354" lon="1.98364">
        <ele>125.59</ele>
        <time>2012-01-12T14:49:45Z</time>
      </trkpt>
      <trkpt lat="48.8735" lon="1.98339">
        <ele>126.07</ele>
        <time>2012-01-12T14:49:59Z</time>
      </trkpt>
      <trkpt lat="48.87346" lon="1.98309">
        <ele>125.59</ele>
        <time>2012-01-12T14:50:14Z</time>
      </trkpt>
      <trkpt lat="48.87341" lon="1.98278">
        <ele>126.55</ele>
        <time>2012-01-12T14:50:31Z</time>
      </trkpt>
      <trkpt lat="48.87339" lon="1.98266">
        <ele>126.55</ele>
        <time>2012-01-12T14:50:42Z</time>
      </trkpt>
      <trkpt lat="48.8733" lon="1.98239">
        <ele>127.51</ele>
        <time>2012-01-12T14:50:58Z</time>
      </trkpt>
      <trkpt lat="48.87313" lon="1.9823">
        <ele>128.95</ele>
        <time>2012-01-12T14:51:12Z</time>
      </trkpt>
      <trkpt lat="48.87294" lon="1.98229">
        <ele>129.92</ele>
        <time>2012-01-12T14:51:27Z</time>
      </trkpt>
      <trkpt lat="48.87276" lon="1.98227">
        <ele>129.43</ele>
        <time>2012-01-12T14:51:41Z</time>
      </trkpt>
      <trkpt lat="48.87253" lon="1.98223">
        <ele>130.88</ele>
        <time>2012-01-12T14:51:58Z</time>
      </trkpt>
      <trkpt lat="48.87241" lon="1.98222">
        <ele>127.99</ele>
        <time>2012-01-12T14:52:13Z</time>
      </trkpt>
      <trkpt lat="48.8723" lon="1.98224">
        <ele>127.99</ele>
        <time>2012-01-12T14:52:32Z</time>
      </trkpt>
      <trkpt lat="48.87206" lon="1.98224">
        <ele>124.63</ele>
        <time>2012-01-12T14:52:49Z</time>
      </trkpt>
      <trkpt lat="48.87182" lon="1.98226">
        <ele>123.67</ele>
        <time>2012-01-12T14:53:07Z</time>
      </trkpt>
      <trkpt lat="48.87159" lon="1.98227">
        <ele>122.71</ele>
        <time>2012-01-12T14:53:24Z</time>
      </trkpt>
      <trkpt lat="48.87137" lon="1.98228">
        <ele>122.71</ele>
        <time>2012-01-12T14:53:40Z</time>
      </trkpt>
      <trkpt lat="48.87119" lon="1.98227">
        <ele>121.74</ele>
        <time>2012-01-12T14:53:53Z</time>
      </trkpt>
      <trkpt lat="48.87092" lon="1.9823">
        <ele>121.26</ele>
        <time>2012-01-12T14:54:11Z</time>
      </trkpt>
      <trkpt lat="48.87089" lon="1.98229">
        <ele>120.78</ele>
        <time>2012-01-12T14:54:14Z</time>
      </trkpt>
      <trkpt lat="48.87066" lon="1.98229">
        <ele>121.26</ele>
        <time>2012-01-12T14:54:30Z</time>
      </trkpt>
      <trkpt lat="48.87043" lon="1.9823">
        <ele>121.74</ele>
        <time>2012-01-12T14:54:46Z</time>
      </trkpt>
      <trkpt lat="48.87033" lon="1.98229">
        <ele>120.3</ele>
        <time>2012-01-12T14:54:58Z</time>
      </trkpt>
      <trkpt lat="48.87014" lon="1.98229">
        <ele>119.82</ele>
        <time>2012-01-12T14:55:10Z</time>
      </trkpt>
      <trkpt lat="48.86993" lon="1.98227">
        <ele>117.9</ele>
        <time>2012-01-12T14:55:25Z</time>
      </trkpt>
      <trkpt lat="48.86974" lon="1.98224">
        <ele>115.98</ele>
        <time>2012-01-12T14:55:41Z</time>
      </trkpt>
      <trkpt lat="48.8696" lon="1.9822">
        <ele>115.98</ele>
        <time>2012-01-12T14:55:55Z</time>
      </trkpt>
      <trkpt lat="48.86941" lon="1.98216">
        <ele>115.98</ele>
        <time>2012-01-12T14:56:09Z</time>
      </trkpt>
      <trkpt lat="48.86921" lon="1.9821">
        <ele>115.98</ele>
        <time>2012-01-12T14:56:22Z</time>
      </trkpt>
      <trkpt lat="48.86906" lon="1.98205">
        <ele>115.5</ele>
        <time>2012-01-12T14:56:33Z</time>
      </trkpt>
      <trkpt lat="48.86885" lon="1.98198">
        <ele>114.05</ele>
        <time>2012-01-12T14:56:49Z</time>
      </trkpt>
      <trkpt lat="48.86865" lon="1.98192">
        <ele>114.53</ele>
        <time>2012-01-12T14:57:03Z</time>
      </trkpt>
      <trkpt lat="48.86844" lon="1.98186">
        <ele>115.5</ele>
        <time>2012-01-12T14:57:17Z</time>
      </trkpt>
      <trkpt lat="48.8682" lon="1.98179">
        <ele>114.53</ele>
        <time>2012-01-12T14:57:35Z</time>
      </trkpt>
      <trkpt lat="48.86804" lon="1.98173">
        <ele>112.61</ele>
        <time>2012-01-12T14:57:50Z</time>
      </trkpt>
      <trkpt lat="48.86783" lon="1.98166">
        <ele>110.69</ele>
        <time>2012-01-12T14:58:06Z</time>
      </trkpt>
      <trkpt lat="48.86763" lon="1.98162">
        <ele>111.65</ele>
        <time>2012-01-12T14:58:22Z</time>
      </trkpt>
      <trkpt lat="48.86753" lon="1.98167">
        <ele>112.13</ele>
        <time>2012-01-12T14:58:30Z</time>
      </trkpt>
      <trkpt lat="48.86733" lon="1.98151">
        <ele>111.17</ele>
        <time>2012-01-12T14:58:48Z</time>
      </trkpt>
      <trkpt lat="48.86715" lon="1.98144">
        <ele>114.05</ele>
        <time>2012-01-12T14:59:03Z</time>
      </trkpt>
      <trkpt lat="48.86706" lon="1.98139">
        <ele>114.05</ele>
        <time>2012-01-12T14:59:25Z</time>
      </trkpt>
      <trkpt lat="48.86685" lon="1.98135">
        <ele>115.5</ele>
        <time>2012-01-12T14:59:40Z</time>
      </trkpt>
      <trkpt lat="48.86676" lon="1.98131">
        <ele>114.53</ele>
        <time>2012-01-12T14:59:48Z</time>
      </trkpt>
      <trkpt lat="48.86672" lon="1.9813">
        <ele>113.57</ele>
        <time>2012-01-12T14:59:52Z</time>
      </trkpt>
      <trkpt lat="48.86649" lon="1.98125">
        <ele>115.98</ele>
        <time>2012-01-12T15:00:09Z</time>
      </trkpt>
      <trkpt lat="48.86624" lon="1.9812">
        <ele>116.94</ele>
        <time>2012-01-12T15:00:27Z</time>
      </trkpt>
      <trkpt lat="48.86605" lon="1.98126">
        <ele>115.01</ele>
        <time>2012-01-12T15:00:41Z</time>
      </trkpt>
      <trkpt lat="48.86589" lon="1.98138">
        <ele>114.53</ele>
        <time>2012-01-12T15:00:58Z</time>
      </trkpt>
      <trkpt lat="48.8658" lon="1.98144">
        <ele>114.05</ele>
        <time>2012-01-12T15:01:14Z</time>
      </trkpt>
      <trkpt lat="48.86561" lon="1.98162">
        <ele>115.98</ele>
        <time>2012-01-12T15:01:29Z</time>
      </trkpt>
      <trkpt lat="48.86538" lon="1.98173">
        <ele>118.38</ele>
        <time>2012-01-12T15:01:46Z</time>
      </trkpt>
      <trkpt lat="48.86516" lon="1.98187">
        <ele>120.78</ele>
        <time>2012-01-12T15:02:04Z</time>
      </trkpt>
      <trkpt lat="48.86498" lon="1.98196">
        <ele>121.26</ele>
        <time>2012-01-12T15:02:17Z</time>
      </trkpt>
      <trkpt lat="48.86481" lon="1.98203">
        <ele>120.3</ele>
        <time>2012-01-12T15:02:31Z</time>
      </trkpt>
      <trkpt lat="48.86464" lon="1.98224">
        <ele>118.38</ele>
        <time>2012-01-12T15:02:48Z</time>
      </trkpt>
      <trkpt lat="48.86445" lon="1.98242">
        <ele>116.94</ele>
        <time>2012-01-12T15:03:06Z</time>
      </trkpt>
      <trkpt lat="48.8644" lon="1.98246">
        <ele>115.98</ele>
        <time>2012-01-12T15:03:10Z</time>
      </trkpt>
      <trkpt lat="48.86428" lon="1.98258">
        <ele>116.94</ele>
        <time>2012-01-12T15:03:22Z</time>
      </trkpt>
      <trkpt lat="48.86414" lon="1.98272">
        <ele>116.94</ele>
        <time>2012-01-12T15:03:35Z</time>
      </trkpt>
      <trkpt lat="48.86402" lon="1.98284">
        <ele>116.46</ele>
        <time>2012-01-12T15:03:46Z</time>
      </trkpt>
      <trkpt lat="48.86381" lon="1.98303">
        <ele>116.46</ele>
        <time>2012-01-12T15:04:02Z</time>
      </trkpt>
      <trkpt lat="48.86362" lon="1.98317">
        <ele>116.46</ele>
        <time>2012-01-12T15:04:18Z</time>
      </trkpt>
      <trkpt lat="48.86346" lon="1.98329">
        <ele>116.46</ele>
        <time>2012-01-12T15:04:31Z</time>
      </trkpt>
      <trkpt lat="48.86326" lon="1.98345">
        <ele>114.53</ele>
        <time>2012-01-12T15:04:47Z</time>
      </trkpt>
      <trkpt lat="48.86308" lon="1.98359">
        <ele>115.01</ele>
        <time>2012-01-12T15:05:03Z</time>
      </trkpt>
      <trkpt lat="48.86293" lon="1.98372">
        <ele>113.09</ele>
        <time>2012-01-12T15:05:16Z</time>
      </trkpt>
      <trkpt lat="48.86277" lon="1.98384">
        <ele>111.17</ele>
        <time>2012-01-12T15:05:30Z</time>
      </trkpt>
      <trkpt lat="48.86256" lon="1.984">
        <ele>111.65</ele>
        <time>2012-01-12T15:05:47Z</time>
      </trkpt>
      <trkpt lat="48.86237" lon="1.98413">
        <ele>111.17</ele>
        <time>2012-01-12T15:06:02Z</time>
      </trkpt>
      <trkpt lat="48.86219" lon="1.98428">
        <ele>110.69</ele>
        <time>2012-01-12T15:06:18Z</time>
      </trkpt>
      <trkpt lat="48.86201" lon="1.9844">
        <ele>109.73</ele>
        <time>2012-01-12T15:06:33Z</time>
      </trkpt>
      <trkpt lat="48.8618" lon="1.98455">
        <ele>109.73</ele>
        <time>2012-01-12T15:06:50Z</time>
      </trkpt>
      <trkpt lat="48.86161" lon="1.98467">
        <ele>111.17</ele>
        <time>2012-01-12T15:07:05Z</time>
      </trkpt>
      <trkpt lat="48.86157" lon="1.9847">
        <ele>111.17</ele>
        <time>2012-01-12T15:07:16Z</time>
      </trkpt>
      <trkpt lat="48.86153" lon="1.98471">
        <ele>110.69</ele>
        <time>2012-01-12T15:07:30Z</time>
      </trkpt>
      <trkpt lat="48.86153" lon="1.98471">
        <ele>110.69</ele>
        <time>2012-01-12T15:07:51Z</time>
      </trkpt>
      <trkpt lat="48.86156" lon="1.98469">
        <ele>109.73</ele>
        <time>2012-01-12T15:08:08Z</time>
      </trkpt>
      <trkpt lat="48.86149" lon="1.98472">
        <ele>109.73</ele>
        <time>2012-01-12T15:08:22Z</time>
      </trkpt>
      <trkpt lat="48.86149" lon="1.98472">
        <ele>109.73</ele>
        <time>2012-01-12T15:08:23Z</time>
      </trkpt>
      <trkpt lat="48.86155" lon="1.98462">
        <ele>112.61</ele>
        <time>2012-01-12T15:08:37Z</time>
      </trkpt>
      <trkpt lat="48.86155" lon="1.98462">
        <ele>112.61</ele>
        <time>2012-01-12T15:09:00Z</time>
      </trkpt>
      <trkpt lat="48.86155" lon="1.98462">
        <ele>112.61</ele>
        <time>2012-01-12T15:09:49Z</time>
      </trkpt>
      <trkpt lat="48.86155" lon="1.98462">
        <ele>112.61</ele>
        <time>2012-01-12T15:10:41Z</time>
      </trkpt>
      <trkpt lat="48.86152" lon="1.98463">
        <ele>111.17</ele>
        <time>2012-01-12T15:10:45Z</time>
      </trkpt>
      <trkpt lat="48.86149" lon="1.98469">
        <ele>108.77</ele>
        <time>2012-01-12T15:10:50Z</time>
      </trkpt>
      <trkpt lat="48.86149" lon="1.98473">
        <ele>107.81</ele>
        <time>2012-01-12T15:10:54Z</time>
      </trkpt>
      <trkpt lat="48.86152" lon="1.98471">
        <ele>106.84</ele>
        <time>2012-01-12T15:11:12Z</time>
      </trkpt>
      <trkpt lat="48.86152" lon="1.98471">
        <ele>106.84</ele>
        <time>2012-01-12T15:11:13Z</time>
      </trkpt>
      <trkpt lat="48.86148" lon="1.98474">
        <ele>106.84</ele>
        <time>2012-01-12T15:11:17Z</time>
      </trkpt>
      <trkpt lat="48.86125" lon="1.98489">
        <ele>106.36</ele>
        <time>2012-01-12T15:11:35Z</time>
      </trkpt>
      <trkpt lat="48.86104" lon="1.98505">
        <ele>105.4</ele>
        <time>2012-01-12T15:11:52Z</time>
      </trkpt>
      <trkpt lat="48.86084" lon="1.98521">
        <ele>104.44</ele>
        <time>2012-01-12T15:12:08Z</time>
      </trkpt>
      <trkpt lat="48.8608" lon="1.98525">
        <ele>104.92</ele>
        <time>2012-01-12T15:12:12Z</time>
      </trkpt>
      <trkpt lat="48.86057" lon="1.98534">
        <ele>103.96</ele>
        <time>2012-01-12T15:12:29Z</time>
      </trkpt>
      <trkpt lat="48.86032" lon="1.98538">
        <ele>103</ele>
        <time>2012-01-12T15:12:47Z</time>
      </trkpt>
      <trkpt lat="48.86009" lon="1.98536">
        <ele>101.56</ele>
        <time>2012-01-12T15:13:02Z</time>
      </trkpt>
      <trkpt lat="48.85994" lon="1.98535">
        <ele>100.6</ele>
        <time>2012-01-12T15:13:13Z</time>
      </trkpt>
      <trkpt lat="48.85983" lon="1.98532">
        <ele>99.63</ele>
        <time>2012-01-12T15:13:21Z</time>
      </trkpt>
      <trkpt lat="48.85975" lon="1.9853">
        <ele>99.15</ele>
        <time>2012-01-12T15:13:28Z</time>
      </trkpt>
      <trkpt lat="48.8597" lon="1.98532">
        <ele>98.67</ele>
        <time>2012-01-12T15:13:32Z</time>
      </trkpt>
      <trkpt lat="48.85956" lon="1.98536">
        <ele>97.71</ele>
        <time>2012-01-12T15:13:43Z</time>
      </trkpt>
      <trkpt lat="48.85947" lon="1.98539">
        <ele>97.71</ele>
        <time>2012-01-12T15:13:49Z</time>
      </trkpt>
      <trkpt lat="48.85933" lon="1.98542">
        <ele>97.23</ele>
        <time>2012-01-12T15:14:03Z</time>
      </trkpt>
      <trkpt lat="48.85919" lon="1.98544">
        <ele>95.79</ele>
        <time>2012-01-12T15:14:16Z</time>
      </trkpt>
      <trkpt lat="48.85903" lon="1.98547">
        <ele>94.83</ele>
        <time>2012-01-12T15:14:29Z</time>
      </trkpt>
      <trkpt lat="48.85883" lon="1.98548">
        <ele>92.42</ele>
        <time>2012-01-12T15:14:44Z</time>
      </trkpt>
      <trkpt lat="48.85868" lon="1.98543">
        <ele>91.46</ele>
        <time>2012-01-12T15:14:57Z</time>
      </trkpt>
      <trkpt lat="48.85851" lon="1.98539">
        <ele>89.54</ele>
        <time>2012-01-12T15:15:08Z</time>
      </trkpt>
      <trkpt lat="48.85833" lon="1.98529">
        <ele>88.1</ele>
        <time>2012-01-12T15:15:23Z</time>
      </trkpt>
      <trkpt lat="48.85832" lon="1.98527">
        <ele>88.1</ele>
        <time>2012-01-12T15:15:38Z</time>
      </trkpt>
      <trkpt lat="48.85823" lon="1.98522">
        <ele>87.14</ele>
        <time>2012-01-12T15:16:01Z</time>
      </trkpt>
      <trkpt lat="48.85805" lon="1.98509">
        <ele>86.66</ele>
        <time>2012-01-12T15:16:16Z</time>
      </trkpt>
      <trkpt lat="48.85788" lon="1.98503">
        <ele>84.73</ele>
        <time>2012-01-12T15:16:29Z</time>
      </trkpt>
      <trkpt lat="48.85785" lon="1.9851">
        <ele>83.29</ele>
        <time>2012-01-12T15:16:42Z</time>
      </trkpt>
      <trkpt lat="48.85785" lon="1.98507">
        <ele>82.81</ele>
        <time>2012-01-12T15:16:56Z</time>
      </trkpt>
      <trkpt lat="48.85765" lon="1.98489">
        <ele>83.29</ele>
        <time>2012-01-12T15:17:13Z</time>
      </trkpt>
      <trkpt lat="48.85744" lon="1.98477">
        <ele>82.33</ele>
        <time>2012-01-12T15:17:30Z</time>
      </trkpt>
      <trkpt lat="48.85723" lon="1.98466">
        <ele>81.37</ele>
        <time>2012-01-12T15:17:46Z</time>
      </trkpt>
      <trkpt lat="48.85704" lon="1.98454">
        <ele>79.93</ele>
        <time>2012-01-12T15:18:00Z</time>
      </trkpt>
      <trkpt lat="48.85682" lon="1.98441">
        <ele>78.97</ele>
        <time>2012-01-12T15:18:17Z</time>
      </trkpt>
      <trkpt lat="48.85662" lon="1.98432">
        <ele>78</ele>
        <time>2012-01-12T15:18:32Z</time>
      </trkpt>
      <trkpt lat="48.85642" lon="1.98423">
        <ele>76.56</ele>
        <time>2012-01-12T15:18:48Z</time>
      </trkpt>
      <trkpt lat="48.85615" lon="1.9841">
        <ele>79.45</ele>
        <time>2012-01-12T15:19:07Z</time>
      </trkpt>
      <trkpt lat="48.85593" lon="1.98395">
        <ele>82.33</ele>
        <time>2012-01-12T15:19:24Z</time>
      </trkpt>
      <trkpt lat="48.85573" lon="1.98383">
        <ele>81.85</ele>
        <time>2012-01-12T15:19:39Z</time>
      </trkpt>
      <trkpt lat="48.85546" lon="1.98386">
        <ele>80.89</ele>
        <time>2012-01-12T15:19:58Z</time>
      </trkpt>
      <trkpt lat="48.85521" lon="1.98391">
        <ele>79.45</ele>
        <time>2012-01-12T15:20:15Z</time>
      </trkpt>
      <trkpt lat="48.855" lon="1.98394">
        <ele>78.48</ele>
        <time>2012-01-12T15:20:31Z</time>
      </trkpt>
      <trkpt lat="48.85479" lon="1.98397">
        <ele>78.97</ele>
        <time>2012-01-12T15:20:48Z</time>
      </trkpt>
      <trkpt lat="48.85461" lon="1.98396">
        <ele>79.45</ele>
        <time>2012-01-12T15:21:00Z</time>
      </trkpt>
      <trkpt lat="48.85444" lon="1.98397">
        <ele>78.48</ele>
        <time>2012-01-12T15:21:15Z</time>
      </trkpt>
      <trkpt lat="48.85424" lon="1.98397">
        <ele>78.97</ele>
        <time>2012-01-12T15:21:28Z</time>
      </trkpt>
      <trkpt lat="48.85406" lon="1.98397">
        <ele>78</ele>
        <time>2012-01-12T15:21:40Z</time>
      </trkpt>
      <trkpt lat="48.85384" lon="1.98399">
        <ele>78</ele>
        <time>2012-01-12T15:21:55Z</time>
      </trkpt>
      <trkpt lat="48.8538" lon="1.98403">
        <ele>78</ele>
        <time>2012-01-12T15:21:59Z</time>
      </trkpt>
      <trkpt lat="48.85371" lon="1.98407">
        <ele>78.48</ele>
        <time>2012-01-12T15:22:07Z</time>
      </trkpt>
      <trkpt lat="48.85367" lon="1.98409">
        <ele>78</ele>
        <time>2012-01-12T15:22:10Z</time>
      </trkpt>
      <trkpt lat="48.85343" lon="1.98414">
        <ele>76.08</ele>
        <time>2012-01-12T15:22:25Z</time>
      </trkpt>
      <trkpt lat="48.8532" lon="1.98427">
        <ele>75.12</ele>
        <time>2012-01-12T15:22:42Z</time>
      </trkpt>
      <trkpt lat="48.85306" lon="1.98436">
        <ele>74.16</ele>
        <time>2012-01-12T15:22:53Z</time>
      </trkpt>
      <trkpt lat="48.85286" lon="1.98451">
        <ele>75.12</ele>
        <time>2012-01-12T15:23:09Z</time>
      </trkpt>
      <trkpt lat="48.85264" lon="1.98462">
        <ele>74.16</ele>
        <time>2012-01-12T15:23:26Z</time>
      </trkpt>
      <trkpt lat="48.85255" lon="1.98464">
        <ele>73.68</ele>
        <time>2012-01-12T15:23:32Z</time>
      </trkpt>
      <trkpt lat="48.85235" lon="1.98475">
        <ele>72.24</ele>
        <time>2012-01-12T15:23:49Z</time>
      </trkpt>
      <trkpt lat="48.85229" lon="1.98479">
        <ele>72.24</ele>
        <time>2012-01-12T15:23:53Z</time>
      </trkpt>
      <trkpt lat="48.85213" lon="1.98486">
        <ele>71.76</ele>
        <time>2012-01-12T15:24:06Z</time>
      </trkpt>
      <trkpt lat="48.85198" lon="1.98495">
        <ele>72.24</ele>
        <time>2012-01-12T15:24:18Z</time>
      </trkpt>
      <trkpt lat="48.85193" lon="1.98497">
        <ele>72.72</ele>
        <time>2012-01-12T15:24:22Z</time>
      </trkpt>
      <trkpt lat="48.85176" lon="1.98501">
        <ele>74.16</ele>
        <time>2012-01-12T15:24:34Z</time>
      </trkpt>
      <trkpt lat="48.85171" lon="1.98504">
        <ele>74.16</ele>
        <time>2012-01-12T15:24:38Z</time>
      </trkpt>
      <trkpt lat="48.85163" lon="1.98507">
        <ele>74.16</ele>
        <time>2012-01-12T15:24:44Z</time>
      </trkpt>
      <trkpt lat="48.85148" lon="1.98517">
        <ele>75.12</ele>
        <time>2012-01-12T15:24:57Z</time>
      </trkpt>
      <trkpt lat="48.85138" lon="1.98524">
        <ele>74.64</ele>
        <time>2012-01-12T15:25:06Z</time>
      </trkpt>
      <trkpt lat="48.85125" lon="1.98541">
        <ele>76.56</ele>
        <time>2012-01-12T15:25:18Z</time>
      </trkpt>
      <trkpt lat="48.8512" lon="1.98564">
        <ele>78</ele>
        <time>2012-01-12T15:25:29Z</time>
      </trkpt>
      <trkpt lat="48.85121" lon="1.98574">
        <ele>77.04</ele>
        <time>2012-01-12T15:25:33Z</time>
      </trkpt>
    </trkseg>
  </trk>
</gpx>